<?xml version="1.0" encoding="UTF-8" standalone="no" ?>
<gpx xmlns="http://www.topografix.com/GPX/1/1" xmlns:xsi="http://www.w3.org/2001/XMLSchema-instance" xsi:schemaLocation="http://www.topografix.com/GPX/1/1 http://www.topografix.com/GPX/1/1/gpx.xsd" version="1.1" creator="VisuGPX - https://www.visugpx.com">
  <metadata>
    <name>Brissac - Roc Blanc</name>
    <desc><![CDATA[2016-05 - Brissac - abime Rabanel - Roc Blanc - Notre-Dame-du-Suc

[b]album[/b] : [url]https://goo.gl/photos/RYpRPixy7UXALxN97[/url]
[img]https://3.bp.blogspot.com/-FMpZK4dy1KY/WNGyn1MNBjI/AAAAAAAARLY/SISsWl83p9kwsKoWeWGedc9z_chd3IcRACLcB/s1600/2014-03_Brissac_Seranne_i.JPG[/img]
[b]Idées de randonnées dans la même région[/b]
Parcours : [url]https://www.visugpx.com/membres/24856/causses/seranne/[/url]
Photos : [url]https://jcvertygo.blogspot.com/p/seranne.html[/url]]]></desc>
  </metadata>
  <trk>
    <name><![CDATA[Brissac - Roc Blanc_1]]></name>
    <trkseg>
      <trkpt lat="43.8783" lon="3.70134">
        <ele>134.8</ele>
        <time>2016-05-07T11:09:11Z</time>
      </trkpt>
      <trkpt lat="43.87826" lon="3.70129">
        <ele>134.8</ele>
        <time>2016-05-07T11:09:16Z</time>
      </trkpt>
      <trkpt lat="43.87829" lon="3.70129">
        <ele>134.8</ele>
        <time>2016-05-07T11:09:21Z</time>
      </trkpt>
      <trkpt lat="43.87833" lon="3.70128">
        <ele>141.48018937067</ele>
        <time>2016-05-07T11:09:26Z</time>
      </trkpt>
      <trkpt lat="43.87843" lon="3.70125">
        <ele>142.67599877193</ele>
        <time>2016-05-07T11:09:36Z</time>
      </trkpt>
      <trkpt lat="43.87848" lon="3.70124">
        <ele>142.67599877193</ele>
        <time>2016-05-07T11:09:41Z</time>
      </trkpt>
      <trkpt lat="43.87855" lon="3.70122">
        <ele>144.13878683959</ele>
        <time>2016-05-07T11:09:51Z</time>
      </trkpt>
      <trkpt lat="43.87858" lon="3.70121">
        <ele>144.13878683959</ele>
        <time>2016-05-07T11:09:56Z</time>
      </trkpt>
      <trkpt lat="43.87862" lon="3.70113">
        <ele>145.83608070322</ele>
        <time>2016-05-07T11:10:06Z</time>
      </trkpt>
      <trkpt lat="43.87863" lon="3.70112">
        <ele>145.83608070322</ele>
        <time>2016-05-07T11:10:11Z</time>
      </trkpt>
      <trkpt lat="43.87876" lon="3.70099">
        <ele>147.34991130381</ele>
        <time>2016-05-07T11:10:41Z</time>
      </trkpt>
      <trkpt lat="43.87876" lon="3.70098">
        <ele>147.34991130381</ele>
        <time>2016-05-07T11:10:46Z</time>
      </trkpt>
      <trkpt lat="43.87878" lon="3.70099">
        <ele>147.34991130381</ele>
        <time>2016-05-07T11:10:56Z</time>
      </trkpt>
      <trkpt lat="43.8788" lon="3.70099">
        <ele>147.34991130381</ele>
        <time>2016-05-07T11:11:01Z</time>
      </trkpt>
      <trkpt lat="43.87884" lon="3.70088">
        <ele>147.88431965034</ele>
        <time>2016-05-07T11:11:11Z</time>
      </trkpt>
      <trkpt lat="43.87883" lon="3.70079">
        <ele>147.88431965034</ele>
        <time>2016-05-07T11:11:16Z</time>
      </trkpt>
      <trkpt lat="43.87882" lon="3.70072">
        <ele>148.16260532584</ele>
        <time>2016-05-07T11:11:21Z</time>
      </trkpt>
      <trkpt lat="43.87881" lon="3.70064">
        <ele>148.16260532584</ele>
        <time>2016-05-07T11:11:26Z</time>
      </trkpt>
      <trkpt lat="43.8787" lon="3.70021">
        <ele>148.14853511536</ele>
        <time>2016-05-07T11:11:56Z</time>
      </trkpt>
      <trkpt lat="43.87838" lon="3.70014">
        <ele>148.02048489083</ele>
        <time>2016-05-07T11:12:32Z</time>
      </trkpt>
      <trkpt lat="43.87801" lon="3.7002">
        <ele>147.67041334529</ele>
        <time>2016-05-07T11:13:01Z</time>
      </trkpt>
      <trkpt lat="43.87698" lon="3.70026">
        <ele>146.8457521382</ele>
        <time>2016-05-07T11:14:39Z</time>
      </trkpt>
      <trkpt lat="43.87696" lon="3.70023">
        <ele>146.8457521382</ele>
        <time>2016-05-07T11:14:40Z</time>
      </trkpt>
      <trkpt lat="43.87688" lon="3.70024">
        <ele>145.64122118855</ele>
        <time>2016-05-07T11:15:17Z</time>
      </trkpt>
      <trkpt lat="43.87687" lon="3.70019">
        <ele>145.64122118855</ele>
        <time>2016-05-07T11:15:23Z</time>
      </trkpt>
      <trkpt lat="43.87676" lon="3.70008">
        <ele>144.48677670482</ele>
        <time>2016-05-07T11:15:41Z</time>
      </trkpt>
      <trkpt lat="43.87666" lon="3.69998">
        <ele>143.42973493281</ele>
        <time>2016-05-07T11:16:08Z</time>
      </trkpt>
      <trkpt lat="43.87619" lon="3.6989">
        <ele>142.84328912894</ele>
        <time>2016-05-07T11:17:30Z</time>
      </trkpt>
      <trkpt lat="43.87578" lon="3.69853">
        <ele>143.30243828893</ele>
        <time>2016-05-07T11:19:01Z</time>
      </trkpt>
      <trkpt lat="43.87575" lon="3.6985">
        <ele>143.30243828893</ele>
        <time>2016-05-07T11:19:22Z</time>
      </trkpt>
      <trkpt lat="43.8757" lon="3.69854">
        <ele>144.01356373937</ele>
        <time>2016-05-07T11:19:22Z</time>
      </trkpt>
      <trkpt lat="43.87551" lon="3.69861">
        <ele>145.0107325489</ele>
        <time>2016-05-07T11:20:08Z</time>
      </trkpt>
      <trkpt lat="43.87542" lon="3.69869">
        <ele>146.17784210055</ele>
        <time>2016-05-07T11:20:26Z</time>
      </trkpt>
      <trkpt lat="43.87528" lon="3.69889">
        <ele>147.66346593072</ele>
        <time>2016-05-07T11:20:58Z</time>
      </trkpt>
      <trkpt lat="43.87521" lon="3.69887">
        <ele>147.66346593072</ele>
        <time>2016-05-07T11:21:21Z</time>
      </trkpt>
      <trkpt lat="43.8752" lon="3.69881">
        <ele>149.36419110516</ele>
        <time>2016-05-07T11:21:24Z</time>
      </trkpt>
      <trkpt lat="43.87513" lon="3.69872">
        <ele>151.49413380716</ele>
        <time>2016-05-07T11:22:14Z</time>
      </trkpt>
      <trkpt lat="43.87513" lon="3.69867">
        <ele>151.49413380716</ele>
        <time>2016-05-07T11:23:04Z</time>
      </trkpt>
      <trkpt lat="43.87512" lon="3.69866">
        <ele>151.49413380716</ele>
        <time>2016-05-07T11:23:06Z</time>
      </trkpt>
      <trkpt lat="43.8751" lon="3.6986">
        <ele>153.67024338086</ele>
        <time>2016-05-07T11:23:25Z</time>
      </trkpt>
      <trkpt lat="43.87506" lon="3.69856">
        <ele>153.67024338086</ele>
        <time>2016-05-07T11:23:25Z</time>
      </trkpt>
      <trkpt lat="43.87492" lon="3.69833">
        <ele>155.70670267768</ele>
        <time>2016-05-07T11:24:07Z</time>
      </trkpt>
      <trkpt lat="43.87487" lon="3.69822">
        <ele>157.63104661978</ele>
        <time>2016-05-07T11:24:23Z</time>
      </trkpt>
      <trkpt lat="43.87486" lon="3.69816">
        <ele>157.63104661978</ele>
        <time>2016-05-07T11:24:24Z</time>
      </trkpt>
      <trkpt lat="43.8748" lon="3.69798">
        <ele>159.52556164989</ele>
        <time>2016-05-07T11:25:00Z</time>
      </trkpt>
      <trkpt lat="43.87464" lon="3.69781">
        <ele>161.4633541886</ele>
        <time>2016-05-07T11:25:33Z</time>
      </trkpt>
      <trkpt lat="43.87451" lon="3.69769">
        <ele>163.31221545048</ele>
        <time>2016-05-07T11:26:00Z</time>
      </trkpt>
      <trkpt lat="43.87447" lon="3.69764">
        <ele>163.31221545048</ele>
        <time>2016-05-07T11:26:05Z</time>
      </trkpt>
      <trkpt lat="43.87442" lon="3.69763">
        <ele>165.09337669216</ele>
        <time>2016-05-07T11:26:07Z</time>
      </trkpt>
      <trkpt lat="43.87437" lon="3.69752">
        <ele>166.965026583</ele>
        <time>2016-05-07T11:26:25Z</time>
      </trkpt>
      <trkpt lat="43.87436" lon="3.69752">
        <ele>166.965026583</ele>
        <time>2016-05-07T11:26:27Z</time>
      </trkpt>
      <trkpt lat="43.87436" lon="3.69752">
        <ele>166.965026583</ele>
        <time>2016-05-07T11:26:33Z</time>
      </trkpt>
      <trkpt lat="43.87433" lon="3.6975">
        <ele>166.965026583</ele>
        <time>2016-05-07T11:26:33Z</time>
      </trkpt>
      <trkpt lat="43.87429" lon="3.69746">
        <ele>168.80730711731</ele>
        <time>2016-05-07T11:26:47Z</time>
      </trkpt>
      <trkpt lat="43.87414" lon="3.69737">
        <ele>170.6487578192</ele>
        <time>2016-05-07T11:27:09Z</time>
      </trkpt>
      <trkpt lat="43.87413" lon="3.69736">
        <ele>170.6487578192</ele>
        <time>2016-05-07T11:27:11Z</time>
      </trkpt>
      <trkpt lat="43.87405" lon="3.6973">
        <ele>172.45992603058</ele>
        <time>2016-05-07T11:27:33Z</time>
      </trkpt>
      <trkpt lat="43.87403" lon="3.69725">
        <ele>172.45992603058</ele>
        <time>2016-05-07T11:27:35Z</time>
      </trkpt>
      <trkpt lat="43.87398" lon="3.69714">
        <ele>174.21308097088</ele>
        <time>2016-05-07T11:28:00Z</time>
      </trkpt>
      <trkpt lat="43.87372" lon="3.69677">
        <ele>176.24468119913</ele>
        <time>2016-05-07T11:28:49Z</time>
      </trkpt>
      <trkpt lat="43.87371" lon="3.69667">
        <ele>176.24468119913</ele>
        <time>2016-05-07T11:29:16Z</time>
      </trkpt>
      <trkpt lat="43.8736" lon="3.69662">
        <ele>178.35251797499</ele>
        <time>2016-05-07T11:29:26Z</time>
      </trkpt>
      <trkpt lat="43.87358" lon="3.69658">
        <ele>178.35251797499</ele>
        <time>2016-05-07T11:29:31Z</time>
      </trkpt>
      <trkpt lat="43.87356" lon="3.69644">
        <ele>181.06441675998</ele>
        <time>2016-05-07T11:29:41Z</time>
      </trkpt>
      <trkpt lat="43.87356" lon="3.69638">
        <ele>181.06441675998</ele>
        <time>2016-05-07T11:29:46Z</time>
      </trkpt>
      <trkpt lat="43.87352" lon="3.69625">
        <ele>183.702556907</ele>
        <time>2016-05-07T11:29:56Z</time>
      </trkpt>
      <trkpt lat="43.87352" lon="3.69616">
        <ele>183.702556907</ele>
        <time>2016-05-07T11:30:01Z</time>
      </trkpt>
      <trkpt lat="43.87349" lon="3.69602">
        <ele>186.53725790619</ele>
        <time>2016-05-07T11:30:13Z</time>
      </trkpt>
      <trkpt lat="43.87346" lon="3.69592">
        <ele>186.53725790619</ele>
        <time>2016-05-07T11:30:19Z</time>
      </trkpt>
      <trkpt lat="43.87349" lon="3.69565">
        <ele>190.11201300961</ele>
        <time>2016-05-07T11:30:32Z</time>
      </trkpt>
      <trkpt lat="43.87341" lon="3.6952">
        <ele>195.04195164873</ele>
        <time>2016-05-07T11:30:57Z</time>
      </trkpt>
      <trkpt lat="43.87337" lon="3.695">
        <ele>199.77823295468</ele>
        <time>2016-05-07T11:31:07Z</time>
      </trkpt>
      <trkpt lat="43.87337" lon="3.69499">
        <ele>199.77823295468</ele>
        <time>2016-05-07T11:31:08Z</time>
      </trkpt>
      <trkpt lat="43.87336" lon="3.69494">
        <ele>199.77823295468</ele>
        <time>2016-05-07T11:31:11Z</time>
      </trkpt>
      <trkpt lat="43.87329" lon="3.69474">
        <ele>204.53773974688</ele>
        <time>2016-05-07T11:31:29Z</time>
      </trkpt>
      <trkpt lat="43.87325" lon="3.69469">
        <ele>204.53773974688</ele>
        <time>2016-05-07T11:31:29Z</time>
      </trkpt>
      <trkpt lat="43.87298" lon="3.69451">
        <ele>209.57022351329</ele>
        <time>2016-05-07T11:32:02Z</time>
      </trkpt>
      <trkpt lat="43.87285" lon="3.69402">
        <ele>214.35428980756</ele>
        <time>2016-05-07T11:32:39Z</time>
      </trkpt>
      <trkpt lat="43.8728" lon="3.69394">
        <ele>214.35428980756</ele>
        <time>2016-05-07T11:32:39Z</time>
      </trkpt>
      <trkpt lat="43.87265" lon="3.69379">
        <ele>218.80245671229</ele>
        <time>2016-05-07T11:33:08Z</time>
      </trkpt>
      <trkpt lat="43.87259" lon="3.69376">
        <ele>218.80245671229</ele>
        <time>2016-05-07T11:33:08Z</time>
      </trkpt>
      <trkpt lat="43.87244" lon="3.69339">
        <ele>222.89509559451</ele>
        <time>2016-05-07T11:33:50Z</time>
      </trkpt>
      <trkpt lat="43.8724" lon="3.69327">
        <ele>226.49675031327</ele>
        <time>2016-05-07T11:33:50Z</time>
      </trkpt>
      <trkpt lat="43.87224" lon="3.69281">
        <ele>229.74027728839</ele>
        <time>2016-05-07T11:34:42Z</time>
      </trkpt>
      <trkpt lat="43.87228" lon="3.69271">
        <ele>229.74027728839</ele>
        <time>2016-05-07T11:34:42Z</time>
      </trkpt>
      <trkpt lat="43.87229" lon="3.69264">
        <ele>232.51122218757</ele>
        <time>2016-05-07T11:34:50Z</time>
      </trkpt>
      <trkpt lat="43.87229" lon="3.69244">
        <ele>234.94783239566</ele>
        <time>2016-05-07T11:35:07Z</time>
      </trkpt>
      <trkpt lat="43.87229" lon="3.69241">
        <ele>234.94783239566</ele>
        <time>2016-05-07T11:35:12Z</time>
      </trkpt>
      <trkpt lat="43.87227" lon="3.69223">
        <ele>237.01448218812</ele>
        <time>2016-05-07T11:35:34Z</time>
      </trkpt>
      <trkpt lat="43.87228" lon="3.69216">
        <ele>237.01448218812</ele>
        <time>2016-05-07T11:35:34Z</time>
      </trkpt>
      <trkpt lat="43.87231" lon="3.69203">
        <ele>239.01249595224</ele>
        <time>2016-05-07T11:35:43Z</time>
      </trkpt>
      <trkpt lat="43.87234" lon="3.69192">
        <ele>239.01249595224</ele>
        <time>2016-05-07T11:35:59Z</time>
      </trkpt>
      <trkpt lat="43.87244" lon="3.69182">
        <ele>240.85836033738</ele>
        <time>2016-05-07T11:36:16Z</time>
      </trkpt>
      <trkpt lat="43.87264" lon="3.6914">
        <ele>242.68682962438</ele>
        <time>2016-05-07T11:37:08Z</time>
      </trkpt>
      <trkpt lat="43.87263" lon="3.6912">
        <ele>244.3509374102</ele>
        <time>2016-05-07T11:37:27Z</time>
      </trkpt>
      <trkpt lat="43.87265" lon="3.69116">
        <ele>244.3509374102</ele>
        <time>2016-05-07T11:37:34Z</time>
      </trkpt>
      <trkpt lat="43.8727" lon="3.69101">
        <ele>245.95668401073</ele>
        <time>2016-05-07T11:37:59Z</time>
      </trkpt>
      <trkpt lat="43.87297" lon="3.6912">
        <ele>247.28652830908</ele>
        <time>2016-05-07T11:38:26Z</time>
      </trkpt>
      <trkpt lat="43.87316" lon="3.69144">
        <ele>248.44119706183</ele>
        <time>2016-05-07T11:38:52Z</time>
      </trkpt>
      <trkpt lat="43.87316" lon="3.69146">
        <ele>248.44119706183</ele>
        <time>2016-05-07T11:38:52Z</time>
      </trkpt>
      <trkpt lat="43.87327" lon="3.69159">
        <ele>249.36417439635</ele>
        <time>2016-05-07T11:39:06Z</time>
      </trkpt>
      <trkpt lat="43.87343" lon="3.69172">
        <ele>250.37664738863</ele>
        <time>2016-05-07T11:39:21Z</time>
      </trkpt>
      <trkpt lat="43.87352" lon="3.69158">
        <ele>251.14835423739</ele>
        <time>2016-05-07T11:39:50Z</time>
      </trkpt>
      <trkpt lat="43.87354" lon="3.69156">
        <ele>251.14835423739</ele>
        <time>2016-05-07T11:39:50Z</time>
      </trkpt>
      <trkpt lat="43.87372" lon="3.69098">
        <ele>252.02947361606</ele>
        <time>2016-05-07T11:41:04Z</time>
      </trkpt>
      <trkpt lat="43.87387" lon="3.69068">
        <ele>253.72465610628</ele>
        <time>2016-05-07T11:41:39Z</time>
      </trkpt>
      <trkpt lat="43.8739" lon="3.69039">
        <ele>255.34358443528</ele>
        <time>2016-05-07T11:42:10Z</time>
      </trkpt>
      <trkpt lat="43.87377" lon="3.6901">
        <ele>256.92377944529</ele>
        <time>2016-05-07T11:42:44Z</time>
      </trkpt>
      <trkpt lat="43.87372" lon="3.68987">
        <ele>258.60245509049</ele>
        <time>2016-05-07T11:43:10Z</time>
      </trkpt>
      <trkpt lat="43.87371" lon="3.68984">
        <ele>258.60245509049</ele>
        <time>2016-05-07T11:43:10Z</time>
      </trkpt>
      <trkpt lat="43.87374" lon="3.68977">
        <ele>258.60245509049</ele>
        <time>2016-05-07T11:43:16Z</time>
      </trkpt>
      <trkpt lat="43.87376" lon="3.6897">
        <ele>260.30017690832</ele>
        <time>2016-05-07T11:43:22Z</time>
      </trkpt>
      <trkpt lat="43.87377" lon="3.68954">
        <ele>262.01706279028</ele>
        <time>2016-05-07T11:43:42Z</time>
      </trkpt>
      <trkpt lat="43.87397" lon="3.68949">
        <ele>264.52645395865</ele>
        <time>2016-05-07T11:44:43Z</time>
      </trkpt>
      <trkpt lat="43.87399" lon="3.6895">
        <ele>264.52645395865</ele>
        <time>2016-05-07T11:44:48Z</time>
      </trkpt>
      <trkpt lat="43.87409" lon="3.68953">
        <ele>266.9206878576</ele>
        <time>2016-05-07T11:45:02Z</time>
      </trkpt>
      <trkpt lat="43.87419" lon="3.68955">
        <ele>269.36862424938</ele>
        <time>2016-05-07T11:45:06Z</time>
      </trkpt>
      <trkpt lat="43.87423" lon="3.68965">
        <ele>269.36862424938</ele>
        <time>2016-05-07T11:45:19Z</time>
      </trkpt>
      <trkpt lat="43.87424" lon="3.68965">
        <ele>271.85128314997</ele>
        <time>2016-05-07T11:45:26Z</time>
      </trkpt>
      <trkpt lat="43.87442" lon="3.68974">
        <ele>274.1915555647</ele>
        <time>2016-05-07T11:45:41Z</time>
      </trkpt>
      <trkpt lat="43.87447" lon="3.68983">
        <ele>274.1915555647</ele>
        <time>2016-05-07T11:45:56Z</time>
      </trkpt>
      <trkpt lat="43.8745" lon="3.68987">
        <ele>276.4003527514</ele>
        <time>2016-05-07T11:45:56Z</time>
      </trkpt>
      <trkpt lat="43.87478" lon="3.69028">
        <ele>278.83537056706</ele>
        <time>2016-05-07T11:46:46Z</time>
      </trkpt>
      <trkpt lat="43.87483" lon="3.69056">
        <ele>281.30556602122</ele>
        <time>2016-05-07T11:47:21Z</time>
      </trkpt>
      <trkpt lat="43.87489" lon="3.69073">
        <ele>284.51598363567</ele>
        <time>2016-05-07T11:48:00Z</time>
      </trkpt>
      <trkpt lat="43.87549" lon="3.69031">
        <ele>290.5749621488</ele>
        <time>2016-05-07T11:50:24Z</time>
      </trkpt>
      <trkpt lat="43.87586" lon="3.69051">
        <ele>297.02161923289</ele>
        <time>2016-05-07T11:51:21Z</time>
      </trkpt>
      <trkpt lat="43.8759" lon="3.69054">
        <ele>297.02161923289</ele>
        <time>2016-05-07T11:51:42Z</time>
      </trkpt>
      <trkpt lat="43.87591" lon="3.69061">
        <ele>302.99364280828</ele>
        <time>2016-05-07T11:51:42Z</time>
      </trkpt>
      <trkpt lat="43.87633" lon="3.69057">
        <ele>309.82946910903</ele>
        <time>2016-05-07T11:53:17Z</time>
      </trkpt>
      <trkpt lat="43.87636" lon="3.6905">
        <ele>309.82946910903</ele>
        <time>2016-05-07T11:53:17Z</time>
      </trkpt>
      <trkpt lat="43.8764" lon="3.69051">
        <ele>316.28479707295</ele>
        <time>2016-05-07T11:53:25Z</time>
      </trkpt>
      <trkpt lat="43.87641" lon="3.69051">
        <ele>316.28479707295</ele>
        <time>2016-05-07T11:53:32Z</time>
      </trkpt>
      <trkpt lat="43.87644" lon="3.69055">
        <ele>316.28479707295</ele>
        <time>2016-05-07T11:53:35Z</time>
      </trkpt>
      <trkpt lat="43.87649" lon="3.69054">
        <ele>322.39127856644</ele>
        <time>2016-05-07T11:54:00Z</time>
      </trkpt>
      <trkpt lat="43.87658" lon="3.69051">
        <ele>328.13590537387</ele>
        <time>2016-05-07T11:54:17Z</time>
      </trkpt>
      <trkpt lat="43.87697" lon="3.69066">
        <ele>333.73835187701</ele>
        <time>2016-05-07T11:55:05Z</time>
      </trkpt>
      <trkpt lat="43.87709" lon="3.69078">
        <ele>338.8835658963</ele>
        <time>2016-05-07T11:55:16Z</time>
      </trkpt>
      <trkpt lat="43.87728" lon="3.69091">
        <ele>343.32431680928</ele>
        <time>2016-05-07T11:55:45Z</time>
      </trkpt>
      <trkpt lat="43.87726" lon="3.69123">
        <ele>346.58852270114</ele>
        <time>2016-05-07T11:56:27Z</time>
      </trkpt>
      <trkpt lat="43.87748" lon="3.69142">
        <ele>348.89101388042</ele>
        <time>2016-05-07T11:57:06Z</time>
      </trkpt>
      <trkpt lat="43.87753" lon="3.69144">
        <ele>348.89101388042</ele>
        <time>2016-05-07T11:57:06Z</time>
      </trkpt>
      <trkpt lat="43.87767" lon="3.69153">
        <ele>350.26067765116</ele>
        <time>2016-05-07T11:57:27Z</time>
      </trkpt>
      <trkpt lat="43.87773" lon="3.69153">
        <ele>350.26067765116</ele>
        <time>2016-05-07T11:57:34Z</time>
      </trkpt>
      <trkpt lat="43.87792" lon="3.69166">
        <ele>350.7414844686</ele>
        <time>2016-05-07T11:58:00Z</time>
      </trkpt>
      <trkpt lat="43.87799" lon="3.6917">
        <ele>350.7414844686</ele>
        <time>2016-05-07T11:58:07Z</time>
      </trkpt>
      <trkpt lat="43.87812" lon="3.69176">
        <ele>350.46335932751</ele>
        <time>2016-05-07T11:58:24Z</time>
      </trkpt>
      <trkpt lat="43.87843" lon="3.69189">
        <ele>349.41917062182</ele>
        <time>2016-05-07T11:59:06Z</time>
      </trkpt>
      <trkpt lat="43.87848" lon="3.69193">
        <ele>349.41917062182</ele>
        <time>2016-05-07T11:59:08Z</time>
      </trkpt>
      <trkpt lat="43.87852" lon="3.69199">
        <ele>347.2872659928</ele>
        <time>2016-05-07T11:59:16Z</time>
      </trkpt>
      <trkpt lat="43.87891" lon="3.69232">
        <ele>343.68617077728</ele>
        <time>2016-05-07T12:00:01Z</time>
      </trkpt>
      <trkpt lat="43.87895" lon="3.69235">
        <ele>343.68617077728</ele>
        <time>2016-05-07T12:00:07Z</time>
      </trkpt>
      <trkpt lat="43.87906" lon="3.69239">
        <ele>339.7810555973</ele>
        <time>2016-05-07T12:00:19Z</time>
      </trkpt>
      <trkpt lat="43.87908" lon="3.69239">
        <ele>339.7810555973</ele>
        <time>2016-05-07T12:00:21Z</time>
      </trkpt>
      <trkpt lat="43.8797" lon="3.69285">
        <ele>334.02717474439</ele>
        <time>2016-05-07T12:01:47Z</time>
      </trkpt>
      <trkpt lat="43.87989" lon="3.69314">
        <ele>327.71011875532</ele>
        <time>2016-05-07T12:02:16Z</time>
      </trkpt>
      <trkpt lat="43.87995" lon="3.69321">
        <ele>327.71011875532</ele>
        <time>2016-05-07T12:02:58Z</time>
      </trkpt>
      <trkpt lat="43.8803" lon="3.6936">
        <ele>320.33477395351</ele>
        <time>2016-05-07T12:03:13Z</time>
      </trkpt>
      <trkpt lat="43.88039" lon="3.69374">
        <ele>312.98856023445</ele>
        <time>2016-05-07T12:03:30Z</time>
      </trkpt>
      <trkpt lat="43.88067" lon="3.69401">
        <ele>305.30821332719</ele>
        <time>2016-05-07T12:04:03Z</time>
      </trkpt>
      <trkpt lat="43.88069" lon="3.69401">
        <ele>305.30821332719</ele>
        <time>2016-05-07T12:04:03Z</time>
      </trkpt>
      <trkpt lat="43.88096" lon="3.69417">
        <ele>300.36176671692</ele>
        <time>2016-05-07T12:04:55Z</time>
      </trkpt>
      <trkpt lat="43.88101" lon="3.69415">
        <ele>300.36176671692</ele>
        <time>2016-05-07T12:05:00Z</time>
      </trkpt>
      <trkpt lat="43.88105" lon="3.69413">
        <ele>300.36176671692</ele>
        <time>2016-05-07T12:05:02Z</time>
      </trkpt>
      <trkpt lat="43.88124" lon="3.69407">
        <ele>296.62738484705</ele>
        <time>2016-05-07T12:05:19Z</time>
      </trkpt>
      <trkpt lat="43.88152" lon="3.69398">
        <ele>293.7874925188</ele>
        <time>2016-05-07T12:05:53Z</time>
      </trkpt>
      <trkpt lat="43.88164" lon="3.69397">
        <ele>291.3862351109</ele>
        <time>2016-05-07T12:05:53Z</time>
      </trkpt>
      <trkpt lat="43.88172" lon="3.69395">
        <ele>291.3862351109</ele>
        <time>2016-05-07T12:06:09Z</time>
      </trkpt>
      <trkpt lat="43.88187" lon="3.69388">
        <ele>289.56205058479</ele>
        <time>2016-05-07T12:06:17Z</time>
      </trkpt>
      <trkpt lat="43.88189" lon="3.69387">
        <ele>289.56205058479</ele>
        <time>2016-05-07T12:06:20Z</time>
      </trkpt>
      <trkpt lat="43.88233" lon="3.69374">
        <ele>289.20538198725</ele>
        <time>2016-05-07T12:06:58Z</time>
      </trkpt>
      <trkpt lat="43.88235" lon="3.69374">
        <ele>289.20538198725</ele>
        <time>2016-05-07T12:06:58Z</time>
      </trkpt>
      <trkpt lat="43.88247" lon="3.69369">
        <ele>289.23298989946</ele>
        <time>2016-05-07T12:07:12Z</time>
      </trkpt>
      <trkpt lat="43.88255" lon="3.69367">
        <ele>289.23298989946</ele>
        <time>2016-05-07T12:07:12Z</time>
      </trkpt>
      <trkpt lat="43.88257" lon="3.69366">
        <ele>289.56276315288</ele>
        <time>2016-05-07T12:07:13Z</time>
      </trkpt>
      <trkpt lat="43.88262" lon="3.69365">
        <ele>289.56276315288</ele>
        <time>2016-05-07T12:07:16Z</time>
      </trkpt>
      <trkpt lat="43.88275" lon="3.69358">
        <ele>290.44899580311</ele>
        <time>2016-05-07T12:07:36Z</time>
      </trkpt>
      <trkpt lat="43.88334" lon="3.69309">
        <ele>292.35597422304</ele>
        <time>2016-05-07T12:08:45Z</time>
      </trkpt>
      <trkpt lat="43.88352" lon="3.69252">
        <ele>294.25439861712</ele>
        <time>2016-05-07T12:09:20Z</time>
      </trkpt>
      <trkpt lat="43.88353" lon="3.69243">
        <ele>294.25439861712</ele>
        <time>2016-05-07T12:09:20Z</time>
      </trkpt>
      <trkpt lat="43.88353" lon="3.69242">
        <ele>294.25439861712</ele>
        <time>2016-05-07T12:09:21Z</time>
      </trkpt>
      <trkpt lat="43.88363" lon="3.69222">
        <ele>296.14197561826</ele>
        <time>2016-05-07T12:09:48Z</time>
      </trkpt>
      <trkpt lat="43.88365" lon="3.69212">
        <ele>296.14197561826</ele>
        <time>2016-05-07T12:09:48Z</time>
      </trkpt>
      <trkpt lat="43.88365" lon="3.69211">
        <ele>296.14197561826</ele>
        <time>2016-05-07T12:10:00Z</time>
      </trkpt>
      <trkpt lat="43.88404" lon="3.69148">
        <ele>297.92980861777</ele>
        <time>2016-05-07T12:11:00Z</time>
      </trkpt>
      <trkpt lat="43.88416" lon="3.69132">
        <ele>299.49230522474</ele>
        <time>2016-05-07T12:11:16Z</time>
      </trkpt>
      <trkpt lat="43.88457" lon="3.69129">
        <ele>300.3675482297</ele>
        <time>2016-05-07T12:12:03Z</time>
      </trkpt>
      <trkpt lat="43.88465" lon="3.6913">
        <ele>300.3675482297</ele>
        <time>2016-05-07T12:12:08Z</time>
      </trkpt>
      <trkpt lat="43.88509" lon="3.69156">
        <ele>300.17256373092</ele>
        <time>2016-05-07T12:13:00Z</time>
      </trkpt>
      <trkpt lat="43.88525" lon="3.69167">
        <ele>299.6075525987</ele>
        <time>2016-05-07T12:13:19Z</time>
      </trkpt>
      <trkpt lat="43.88526" lon="3.69166">
        <ele>299.6075525987</ele>
        <time>2016-05-07T12:13:27Z</time>
      </trkpt>
      <trkpt lat="43.88555" lon="3.69126">
        <ele>298.74549461813</ele>
        <time>2016-05-07T12:14:06Z</time>
      </trkpt>
      <trkpt lat="43.88554" lon="3.69119">
        <ele>298.74549461813</ele>
        <time>2016-05-07T12:14:06Z</time>
      </trkpt>
      <trkpt lat="43.88554" lon="3.69102">
        <ele>297.76994937671</ele>
        <time>2016-05-07T12:14:18Z</time>
      </trkpt>
      <trkpt lat="43.88582" lon="3.69033">
        <ele>296.04400585163</ele>
        <time>2016-05-07T12:15:11Z</time>
      </trkpt>
      <trkpt lat="43.88584" lon="3.69028">
        <ele>296.04400585163</ele>
        <time>2016-05-07T12:15:16Z</time>
      </trkpt>
      <trkpt lat="43.88599" lon="3.68959">
        <ele>293.78660429747</ele>
        <time>2016-05-07T12:16:05Z</time>
      </trkpt>
      <trkpt lat="43.88599" lon="3.68952">
        <ele>293.78660429747</ele>
        <time>2016-05-07T12:16:08Z</time>
      </trkpt>
      <trkpt lat="43.88605" lon="3.68941">
        <ele>291.50454295426</ele>
        <time>2016-05-07T12:16:17Z</time>
      </trkpt>
      <trkpt lat="43.88606" lon="3.6894">
        <ele>291.50454295426</ele>
        <time>2016-05-07T12:16:18Z</time>
      </trkpt>
      <trkpt lat="43.88616" lon="3.68879">
        <ele>289.36459610441</ele>
        <time>2016-05-07T12:17:07Z</time>
      </trkpt>
      <trkpt lat="43.88672" lon="3.6879">
        <ele>287.030697926</ele>
        <time>2016-05-07T12:18:34Z</time>
      </trkpt>
      <trkpt lat="43.88688" lon="3.68775">
        <ele>284.76829855453</ele>
        <time>2016-05-07T12:19:06Z</time>
      </trkpt>
      <trkpt lat="43.88685" lon="3.68768">
        <ele>284.76829855453</ele>
        <time>2016-05-07T12:19:06Z</time>
      </trkpt>
      <trkpt lat="43.88678" lon="3.68758">
        <ele>282.75088809356</ele>
        <time>2016-05-07T12:19:17Z</time>
      </trkpt>
      <trkpt lat="43.88662" lon="3.68728">
        <ele>281.26802961303</ele>
        <time>2016-05-07T12:19:48Z</time>
      </trkpt>
      <trkpt lat="43.8865" lon="3.68719">
        <ele>280.05310114548</ele>
        <time>2016-05-07T12:20:04Z</time>
      </trkpt>
      <trkpt lat="43.88645" lon="3.68715">
        <ele>280.05310114548</ele>
        <time>2016-05-07T12:20:11Z</time>
      </trkpt>
      <trkpt lat="43.88631" lon="3.68705">
        <ele>279.34811437912</ele>
        <time>2016-05-07T12:20:26Z</time>
      </trkpt>
      <trkpt lat="43.88613" lon="3.6868">
        <ele>278.82806286402</ele>
        <time>2016-05-07T12:20:59Z</time>
      </trkpt>
      <trkpt lat="43.88603" lon="3.68646">
        <ele>278.53699719281</ele>
        <time>2016-05-07T12:21:38Z</time>
      </trkpt>
      <trkpt lat="43.88591" lon="3.68588">
        <ele>278.61581049157</ele>
        <time>2016-05-07T12:22:27Z</time>
      </trkpt>
      <trkpt lat="43.88588" lon="3.68581">
        <ele>278.61581049157</ele>
        <time>2016-05-07T12:22:27Z</time>
      </trkpt>
      <trkpt lat="43.88584" lon="3.68529">
        <ele>279.23710001429</ele>
        <time>2016-05-07T12:23:16Z</time>
      </trkpt>
      <trkpt lat="43.88581" lon="3.68507">
        <ele>280.17003305986</ele>
        <time>2016-05-07T12:23:31Z</time>
      </trkpt>
      <trkpt lat="43.88579" lon="3.68477">
        <ele>283.05881620211</ele>
        <time>2016-05-07T12:25:08Z</time>
      </trkpt>
      <trkpt lat="43.88579" lon="3.68462">
        <ele>285.84730403424</ele>
        <time>2016-05-07T12:25:25Z</time>
      </trkpt>
      <trkpt lat="43.88577" lon="3.68447">
        <ele>288.60497571905</ele>
        <time>2016-05-07T12:25:33Z</time>
      </trkpt>
      <trkpt lat="43.88576" lon="3.68444">
        <ele>288.60497571905</ele>
        <time>2016-05-07T12:25:42Z</time>
      </trkpt>
      <trkpt lat="43.88573" lon="3.68437">
        <ele>288.60497571905</ele>
        <time>2016-05-07T12:25:42Z</time>
      </trkpt>
      <trkpt lat="43.88569" lon="3.68427">
        <ele>291.39627693567</ele>
        <time>2016-05-07T12:26:00Z</time>
      </trkpt>
      <trkpt lat="43.88563" lon="3.68412">
        <ele>294.20878333964</ele>
        <time>2016-05-07T12:26:14Z</time>
      </trkpt>
      <trkpt lat="43.88563" lon="3.68404">
        <ele>294.20878333964</ele>
        <time>2016-05-07T12:26:16Z</time>
      </trkpt>
      <trkpt lat="43.88554" lon="3.68331">
        <ele>297.67948407451</ele>
        <time>2016-05-07T12:27:30Z</time>
      </trkpt>
      <trkpt lat="43.88553" lon="3.68326">
        <ele>297.67948407451</ele>
        <time>2016-05-07T12:27:30Z</time>
      </trkpt>
      <trkpt lat="43.88553" lon="3.68326">
        <ele>297.67948407451</ele>
        <time>2016-05-07T12:27:31Z</time>
      </trkpt>
      <trkpt lat="43.88537" lon="3.68291">
        <ele>301.31594552327</ele>
        <time>2016-05-07T12:28:13Z</time>
      </trkpt>
      <trkpt lat="43.88538" lon="3.68233">
        <ele>305.49741051461</ele>
        <time>2016-05-07T12:29:29Z</time>
      </trkpt>
      <trkpt lat="43.88537" lon="3.68208">
        <ele>309.85329294445</ele>
        <time>2016-05-07T12:29:54Z</time>
      </trkpt>
      <trkpt lat="43.8853" lon="3.68204">
        <ele>309.85329294445</ele>
        <time>2016-05-07T12:29:54Z</time>
      </trkpt>
      <trkpt lat="43.88526" lon="3.68205">
        <ele>314.40018980443</ele>
        <time>2016-05-07T12:30:05Z</time>
      </trkpt>
      <trkpt lat="43.88525" lon="3.68203">
        <ele>314.40018980443</ele>
        <time>2016-05-07T12:30:06Z</time>
      </trkpt>
      <trkpt lat="43.88518" lon="3.68198">
        <ele>319.23960362275</ele>
        <time>2016-05-07T12:30:22Z</time>
      </trkpt>
      <trkpt lat="43.88536" lon="3.68192">
        <ele>324.47939194069</ele>
        <time>2016-05-07T12:30:58Z</time>
      </trkpt>
      <trkpt lat="43.88544" lon="3.68186">
        <ele>329.57009751089</ele>
        <time>2016-05-07T12:30:58Z</time>
      </trkpt>
      <trkpt lat="43.88567" lon="3.68168">
        <ele>335.14182735302</ele>
        <time>2016-05-07T12:31:29Z</time>
      </trkpt>
      <trkpt lat="43.88568" lon="3.68166">
        <ele>335.14182735302</ele>
        <time>2016-05-07T12:31:31Z</time>
      </trkpt>
      <trkpt lat="43.88574" lon="3.68151">
        <ele>340.63884535523</ele>
        <time>2016-05-07T12:31:54Z</time>
      </trkpt>
      <trkpt lat="43.88575" lon="3.68108">
        <ele>346.44028621221</ele>
        <time>2016-05-07T12:32:33Z</time>
      </trkpt>
      <trkpt lat="43.88574" lon="3.68104">
        <ele>346.44028621221</ele>
        <time>2016-05-07T12:32:34Z</time>
      </trkpt>
      <trkpt lat="43.88568" lon="3.68076">
        <ele>352.20517728745</ele>
        <time>2016-05-07T12:33:00Z</time>
      </trkpt>
      <trkpt lat="43.88579" lon="3.68012">
        <ele>358.55480878355</ele>
        <time>2016-05-07T12:34:04Z</time>
      </trkpt>
      <trkpt lat="43.88579" lon="3.6799">
        <ele>364.78096382385</ele>
        <time>2016-05-07T12:34:28Z</time>
      </trkpt>
      <trkpt lat="43.88582" lon="3.67981">
        <ele>364.78096382385</ele>
        <time>2016-05-07T12:34:47Z</time>
      </trkpt>
      <trkpt lat="43.88582" lon="3.67945">
        <ele>371.13612567759</ele>
        <time>2016-05-07T12:35:07Z</time>
      </trkpt>
      <trkpt lat="43.88581" lon="3.67924">
        <ele>377.34989549464</ele>
        <time>2016-05-07T12:35:30Z</time>
      </trkpt>
      <trkpt lat="43.8858" lon="3.67923">
        <ele>377.34989549464</ele>
        <time>2016-05-07T12:35:31Z</time>
      </trkpt>
      <trkpt lat="43.8858" lon="3.67906">
        <ele>383.21580993933</ele>
        <time>2016-05-07T12:35:48Z</time>
      </trkpt>
      <trkpt lat="43.88581" lon="3.67903">
        <ele>383.21580993933</ele>
        <time>2016-05-07T12:35:48Z</time>
      </trkpt>
      <trkpt lat="43.88586" lon="3.67884">
        <ele>388.80340355005</ele>
        <time>2016-05-07T12:36:08Z</time>
      </trkpt>
      <trkpt lat="43.88602" lon="3.67851">
        <ele>394.42333325417</ele>
        <time>2016-05-07T12:36:41Z</time>
      </trkpt>
      <trkpt lat="43.88608" lon="3.67843">
        <ele>394.42333325417</ele>
        <time>2016-05-07T12:37:00Z</time>
      </trkpt>
      <trkpt lat="43.88613" lon="3.67815">
        <ele>400.19087038706</ele>
        <time>2016-05-07T12:37:25Z</time>
      </trkpt>
      <trkpt lat="43.88616" lon="3.67812">
        <ele>400.19087038706</ele>
        <time>2016-05-07T12:37:25Z</time>
      </trkpt>
      <trkpt lat="43.88644" lon="3.67779">
        <ele>407.23606899153</ele>
        <time>2016-05-07T12:38:27Z</time>
      </trkpt>
      <trkpt lat="43.88652" lon="3.67763">
        <ele>414.22499891137</ele>
        <time>2016-05-07T12:38:46Z</time>
      </trkpt>
      <trkpt lat="43.88659" lon="3.67754">
        <ele>420.81585412426</ele>
        <time>2016-05-07T12:39:05Z</time>
      </trkpt>
      <trkpt lat="43.8866" lon="3.67753">
        <ele>420.81585412426</ele>
        <time>2016-05-07T12:39:11Z</time>
      </trkpt>
      <trkpt lat="43.88668" lon="3.67733">
        <ele>427.16910467162</ele>
        <time>2016-05-07T12:39:28Z</time>
      </trkpt>
      <trkpt lat="43.88669" lon="3.67731">
        <ele>427.16910467162</ele>
        <time>2016-05-07T12:39:31Z</time>
      </trkpt>
      <trkpt lat="43.88673" lon="3.67719">
        <ele>433.01665589547</ele>
        <time>2016-05-07T12:39:53Z</time>
      </trkpt>
      <trkpt lat="43.88675" lon="3.67709">
        <ele>433.01665589547</ele>
        <time>2016-05-07T12:39:53Z</time>
      </trkpt>
      <trkpt lat="43.88676" lon="3.67702">
        <ele>438.45787445003</ele>
        <time>2016-05-07T12:40:04Z</time>
      </trkpt>
      <trkpt lat="43.88676" lon="3.677">
        <ele>438.45787445003</ele>
        <time>2016-05-07T12:40:08Z</time>
      </trkpt>
      <trkpt lat="43.8868" lon="3.67668">
        <ele>443.84584150767</ele>
        <time>2016-05-07T12:40:45Z</time>
      </trkpt>
      <trkpt lat="43.88678" lon="3.67659">
        <ele>443.84584150767</ele>
        <time>2016-05-07T12:40:45Z</time>
      </trkpt>
      <trkpt lat="43.88678" lon="3.67658">
        <ele>443.84584150767</ele>
        <time>2016-05-07T12:40:46Z</time>
      </trkpt>
      <trkpt lat="43.88678" lon="3.67638">
        <ele>449.22009065358</ele>
        <time>2016-05-07T12:41:10Z</time>
      </trkpt>
      <trkpt lat="43.88682" lon="3.67612">
        <ele>454.77626524809</ele>
        <time>2016-05-07T12:41:52Z</time>
      </trkpt>
      <trkpt lat="43.88693" lon="3.67581">
        <ele>460.32087703143</ele>
        <time>2016-05-07T12:42:09Z</time>
      </trkpt>
      <trkpt lat="43.88695" lon="3.67573">
        <ele>460.32087703143</ele>
        <time>2016-05-07T12:42:18Z</time>
      </trkpt>
      <trkpt lat="43.88696" lon="3.67572">
        <ele>460.32087703143</ele>
        <time>2016-05-07T12:42:19Z</time>
      </trkpt>
      <trkpt lat="43.88704" lon="3.67562">
        <ele>465.8480457444</ele>
        <time>2016-05-07T12:42:42Z</time>
      </trkpt>
      <trkpt lat="43.88711" lon="3.67562">
        <ele>465.8480457444</ele>
        <time>2016-05-07T12:42:42Z</time>
      </trkpt>
      <trkpt lat="43.88712" lon="3.67562">
        <ele>465.8480457444</ele>
        <time>2016-05-07T12:42:43Z</time>
      </trkpt>
      <trkpt lat="43.88717" lon="3.67536">
        <ele>471.17985365593</ele>
        <time>2016-05-07T12:43:15Z</time>
      </trkpt>
      <trkpt lat="43.8871" lon="3.67532">
        <ele>471.17985365593</ele>
        <time>2016-05-07T12:43:20Z</time>
      </trkpt>
      <trkpt lat="43.88679" lon="3.67516">
        <ele>476.67120381009</ele>
        <time>2016-05-07T12:43:50Z</time>
      </trkpt>
      <trkpt lat="43.88669" lon="3.67509">
        <ele>481.62767848223</ele>
        <time>2016-05-07T12:44:07Z</time>
      </trkpt>
      <trkpt lat="43.88664" lon="3.67504">
        <ele>481.62767848223</ele>
        <time>2016-05-07T12:44:07Z</time>
      </trkpt>
      <trkpt lat="43.88652" lon="3.67491">
        <ele>486.30123414714</ele>
        <time>2016-05-07T12:44:23Z</time>
      </trkpt>
      <trkpt lat="43.88628" lon="3.67493">
        <ele>490.85441149856</ele>
        <time>2016-05-07T12:45:02Z</time>
      </trkpt>
      <trkpt lat="43.88611" lon="3.67502">
        <ele>494.90527264822</ele>
        <time>2016-05-07T12:45:21Z</time>
      </trkpt>
      <trkpt lat="43.88582" lon="3.67493">
        <ele>498.75016004532</ele>
        <time>2016-05-07T12:45:59Z</time>
      </trkpt>
      <trkpt lat="43.88553" lon="3.67485">
        <ele>502.65010470045</ele>
        <time>2016-05-07T12:46:45Z</time>
      </trkpt>
      <trkpt lat="43.88547" lon="3.67486">
        <ele>502.65010470045</ele>
        <time>2016-05-07T12:46:45Z</time>
      </trkpt>
      <trkpt lat="43.88546" lon="3.67486">
        <ele>502.65010470045</ele>
        <time>2016-05-07T12:46:46Z</time>
      </trkpt>
      <trkpt lat="43.88522" lon="3.67494">
        <ele>506.7461981358</ele>
        <time>2016-05-07T12:47:25Z</time>
      </trkpt>
      <trkpt lat="43.8852" lon="3.67495">
        <ele>506.7461981358</ele>
        <time>2016-05-07T12:47:26Z</time>
      </trkpt>
      <trkpt lat="43.88502" lon="3.67498">
        <ele>510.66447274457</ele>
        <time>2016-05-07T12:48:04Z</time>
      </trkpt>
      <trkpt lat="43.88501" lon="3.67498">
        <ele>510.66447274457</ele>
        <time>2016-05-07T12:48:04Z</time>
      </trkpt>
      <trkpt lat="43.88473" lon="3.67516">
        <ele>514.46266508227</ele>
        <time>2016-05-07T12:49:04Z</time>
      </trkpt>
      <trkpt lat="43.88466" lon="3.67518">
        <ele>514.46266508227</ele>
        <time>2016-05-07T12:49:21Z</time>
      </trkpt>
      <trkpt lat="43.88463" lon="3.67521">
        <ele>517.69041814952</ele>
        <time>2016-05-07T12:49:23Z</time>
      </trkpt>
      <trkpt lat="43.8844" lon="3.67539">
        <ele>520.84013650581</ele>
        <time>2016-05-07T12:50:04Z</time>
      </trkpt>
      <trkpt lat="43.88424" lon="3.67542">
        <ele>523.71992547439</ele>
        <time>2016-05-07T12:50:27Z</time>
      </trkpt>
      <trkpt lat="43.88405" lon="3.6755">
        <ele>526.71490817509</ele>
        <time>2016-05-07T12:51:09Z</time>
      </trkpt>
      <trkpt lat="43.88401" lon="3.67549">
        <ele>526.71490817509</ele>
        <time>2016-05-07T12:51:10Z</time>
      </trkpt>
      <trkpt lat="43.88396" lon="3.67541">
        <ele>529.47555468433</ele>
        <time>2016-05-07T12:51:26Z</time>
      </trkpt>
      <trkpt lat="43.88368" lon="3.67559">
        <ele>532.37048569933</ele>
        <time>2016-05-07T12:52:30Z</time>
      </trkpt>
      <trkpt lat="43.88357" lon="3.67569">
        <ele>534.86184812885</ele>
        <time>2016-05-07T12:52:43Z</time>
      </trkpt>
      <trkpt lat="43.88342" lon="3.67577">
        <ele>537.17302581587</ele>
        <time>2016-05-07T12:53:04Z</time>
      </trkpt>
      <trkpt lat="43.88287" lon="3.67593">
        <ele>540.04472758902</ele>
        <time>2016-05-07T12:54:30Z</time>
      </trkpt>
      <trkpt lat="43.88282" lon="3.67595">
        <ele>540.04472758902</ele>
        <time>2016-05-07T12:54:41Z</time>
      </trkpt>
      <trkpt lat="43.88275" lon="3.67598">
        <ele>542.70615174504</ele>
        <time>2016-05-07T12:54:41Z</time>
      </trkpt>
      <trkpt lat="43.88265" lon="3.676">
        <ele>545.03454418968</ele>
        <time>2016-05-07T12:55:01Z</time>
      </trkpt>
      <trkpt lat="43.88253" lon="3.67596">
        <ele>547.19087515469</ele>
        <time>2016-05-07T12:55:24Z</time>
      </trkpt>
      <trkpt lat="43.88251" lon="3.67596">
        <ele>547.19087515469</ele>
        <time>2016-05-07T12:55:26Z</time>
      </trkpt>
      <trkpt lat="43.88239" lon="3.67597">
        <ele>549.13737221412</ele>
        <time>2016-05-07T12:55:41Z</time>
      </trkpt>
      <trkpt lat="43.8821" lon="3.67603">
        <ele>551.34394303227</ele>
        <time>2016-05-07T12:56:36Z</time>
      </trkpt>
      <trkpt lat="43.8821" lon="3.67604">
        <ele>551.34394303227</ele>
        <time>2016-05-07T12:56:36Z</time>
      </trkpt>
      <trkpt lat="43.88196" lon="3.67608">
        <ele>553.32284519775</ele>
        <time>2016-05-07T12:57:00Z</time>
      </trkpt>
      <trkpt lat="43.88163" lon="3.67652">
        <ele>556.20792491667</ele>
        <time>2016-05-07T12:58:11Z</time>
      </trkpt>
      <trkpt lat="43.88162" lon="3.67653">
        <ele>556.20792491667</ele>
        <time>2016-05-07T12:58:18Z</time>
      </trkpt>
      <trkpt lat="43.88161" lon="3.67657">
        <ele>556.20792491667</ele>
        <time>2016-05-07T12:58:18Z</time>
      </trkpt>
      <trkpt lat="43.88161" lon="3.6766">
        <ele>556.20792491667</ele>
        <time>2016-05-07T12:59:08Z</time>
      </trkpt>
      <trkpt lat="43.88138" lon="3.6766">
        <ele>561.76764066037</ele>
        <time>2016-05-07T13:00:22Z</time>
      </trkpt>
      <trkpt lat="43.88138" lon="3.6766">
        <ele>561.76764066037</ele>
        <time>2016-05-07T13:00:42Z</time>
      </trkpt>
      <trkpt lat="43.88114" lon="3.67625">
        <ele>568.79393798422</ele>
        <time>2016-05-07T13:02:15Z</time>
      </trkpt>
      <trkpt lat="43.88118" lon="3.67614">
        <ele>568.79393798422</ele>
        <time>2016-05-07T13:02:26Z</time>
      </trkpt>
      <trkpt lat="43.88108" lon="3.67585">
        <ele>576.42269557285</ele>
        <time>2016-05-07T13:03:20Z</time>
      </trkpt>
      <trkpt lat="43.88105" lon="3.67577">
        <ele>576.42269557285</ele>
        <time>2016-05-07T13:03:41Z</time>
      </trkpt>
      <trkpt lat="43.88103" lon="3.67573">
        <ele>583.7073939813</ele>
        <time>2016-05-07T13:03:42Z</time>
      </trkpt>
      <trkpt lat="43.88102" lon="3.67572">
        <ele>583.7073939813</ele>
        <time>2016-05-07T13:04:07Z</time>
      </trkpt>
      <trkpt lat="43.881" lon="3.67566">
        <ele>583.7073939813</ele>
        <time>2016-05-07T13:04:07Z</time>
      </trkpt>
      <trkpt lat="43.88108" lon="3.67555">
        <ele>590.8383850395</ele>
        <time>2016-05-07T13:04:41Z</time>
      </trkpt>
      <trkpt lat="43.88102" lon="3.67537">
        <ele>598.15097066588</ele>
        <time>2016-05-07T13:05:17Z</time>
      </trkpt>
      <trkpt lat="43.88103" lon="3.67533">
        <ele>598.15097066588</ele>
        <time>2016-05-07T13:05:17Z</time>
      </trkpt>
      <trkpt lat="43.88109" lon="3.67524">
        <ele>604.93212701693</ele>
        <time>2016-05-07T13:05:42Z</time>
      </trkpt>
      <trkpt lat="43.8811" lon="3.67521">
        <ele>604.93212701693</ele>
        <time>2016-05-07T13:05:42Z</time>
      </trkpt>
      <trkpt lat="43.8811" lon="3.67511">
        <ele>611.113580489</ele>
        <time>2016-05-07T13:05:51Z</time>
      </trkpt>
      <trkpt lat="43.88121" lon="3.67452">
        <ele>618.04608856452</ele>
        <time>2016-05-07T13:07:05Z</time>
      </trkpt>
      <trkpt lat="43.88122" lon="3.67451">
        <ele>618.04608856452</ele>
        <time>2016-05-07T13:07:07Z</time>
      </trkpt>
      <trkpt lat="43.88125" lon="3.67443">
        <ele>618.04608856452</ele>
        <time>2016-05-07T13:07:18Z</time>
      </trkpt>
      <trkpt lat="43.88126" lon="3.67443">
        <ele>618.04608856452</ele>
        <time>2016-05-07T13:07:21Z</time>
      </trkpt>
      <trkpt lat="43.88128" lon="3.67436">
        <ele>624.90393395298</ele>
        <time>2016-05-07T13:07:44Z</time>
      </trkpt>
      <trkpt lat="43.88128" lon="3.67419">
        <ele>631.46996108114</ele>
        <time>2016-05-07T13:08:01Z</time>
      </trkpt>
      <trkpt lat="43.88118" lon="3.67398">
        <ele>637.73121444979</ele>
        <time>2016-05-07T13:08:29Z</time>
      </trkpt>
      <trkpt lat="43.88108" lon="3.67389">
        <ele>643.38841709907</ele>
        <time>2016-05-07T13:08:40Z</time>
      </trkpt>
      <trkpt lat="43.88102" lon="3.67383">
        <ele>643.38841709907</ele>
        <time>2016-05-07T13:08:44Z</time>
      </trkpt>
      <trkpt lat="43.88098" lon="3.67377">
        <ele>648.43988212336</ele>
        <time>2016-05-07T13:08:53Z</time>
      </trkpt>
      <trkpt lat="43.88098" lon="3.67377">
        <ele>648.43988212336</ele>
        <time>2016-05-07T13:08:53Z</time>
      </trkpt>
      <trkpt lat="43.88096" lon="3.67374">
        <ele>648.43988212336</ele>
        <time>2016-05-07T13:08:57Z</time>
      </trkpt>
      <trkpt lat="43.88094" lon="3.67372">
        <ele>648.43988212336</ele>
        <time>2016-05-07T13:10:01Z</time>
      </trkpt>
      <trkpt lat="43.88094" lon="3.67367">
        <ele>654.35578241691</ele>
        <time>2016-05-07T13:11:36Z</time>
      </trkpt>
      <trkpt lat="43.88089" lon="3.67358">
        <ele>654.35578241691</ele>
        <time>2016-05-07T13:11:50Z</time>
      </trkpt>
      <trkpt lat="43.88036" lon="3.67356">
        <ele>659.75785782862</ele>
        <time>2016-05-07T13:12:47Z</time>
      </trkpt>
      <trkpt lat="43.88017" lon="3.67355">
        <ele>664.45146962664</ele>
        <time>2016-05-07T13:13:04Z</time>
      </trkpt>
      <trkpt lat="43.88015" lon="3.67355">
        <ele>664.45146962664</ele>
        <time>2016-05-07T13:13:04Z</time>
      </trkpt>
      <trkpt lat="43.87978" lon="3.67325">
        <ele>668.80598256543</ele>
        <time>2016-05-07T13:13:51Z</time>
      </trkpt>
      <trkpt lat="43.87965" lon="3.67288">
        <ele>672.81880135614</ele>
        <time>2016-05-07T13:14:17Z</time>
      </trkpt>
      <trkpt lat="43.87965" lon="3.67287">
        <ele>672.81880135614</ele>
        <time>2016-05-07T13:14:24Z</time>
      </trkpt>
      <trkpt lat="43.87966" lon="3.67235">
        <ele>676.79119242184</ele>
        <time>2016-05-07T13:15:08Z</time>
      </trkpt>
      <trkpt lat="43.87976" lon="3.67216">
        <ele>680.18103743351</ele>
        <time>2016-05-07T13:15:18Z</time>
      </trkpt>
      <trkpt lat="43.87978" lon="3.67212">
        <ele>680.18103743351</ele>
        <time>2016-05-07T13:15:21Z</time>
      </trkpt>
      <trkpt lat="43.87992" lon="3.67188">
        <ele>683.2226947824</ele>
        <time>2016-05-07T13:15:41Z</time>
      </trkpt>
      <trkpt lat="43.88001" lon="3.67178">
        <ele>685.80286335212</ele>
        <time>2016-05-07T13:15:58Z</time>
      </trkpt>
      <trkpt lat="43.8801" lon="3.6717">
        <ele>688.00522079562</ele>
        <time>2016-05-07T13:15:58Z</time>
      </trkpt>
      <trkpt lat="43.88018" lon="3.67142">
        <ele>689.83629788787</ele>
        <time>2016-05-07T13:16:24Z</time>
      </trkpt>
      <trkpt lat="43.88003" lon="3.6708">
        <ele>691.9228394965</ele>
        <time>2016-05-07T13:16:59Z</time>
      </trkpt>
      <trkpt lat="43.87993" lon="3.6702">
        <ele>694.02335259885</ele>
        <time>2016-05-07T13:17:43Z</time>
      </trkpt>
      <trkpt lat="43.87991" lon="3.67009">
        <ele>694.02335259885</ele>
        <time>2016-05-07T13:17:43Z</time>
      </trkpt>
      <trkpt lat="43.87976" lon="3.66872">
        <ele>696.96599016784</ele>
        <time>2016-05-07T13:19:08Z</time>
      </trkpt>
      <trkpt lat="43.8797" lon="3.66811">
        <ele>700.03127987028</ele>
        <time>2016-05-07T13:19:41Z</time>
      </trkpt>
      <trkpt lat="43.87964" lon="3.66782">
        <ele>702.92685157541</ele>
        <time>2016-05-07T13:20:08Z</time>
      </trkpt>
      <trkpt lat="43.8796" lon="3.6677">
        <ele>705.46865034698</ele>
        <time>2016-05-07T13:20:08Z</time>
      </trkpt>
      <trkpt lat="43.87953" lon="3.66758">
        <ele>707.54466443639</ele>
        <time>2016-05-07T13:20:17Z</time>
      </trkpt>
      <trkpt lat="43.87952" lon="3.66757">
        <ele>707.54466443639</ele>
        <time>2016-05-07T13:20:18Z</time>
      </trkpt>
      <trkpt lat="43.87944" lon="3.66748">
        <ele>709.23963684949</ele>
        <time>2016-05-07T13:20:26Z</time>
      </trkpt>
      <trkpt lat="43.87925" lon="3.66718">
        <ele>710.63301739558</ele>
        <time>2016-05-07T13:20:59Z</time>
      </trkpt>
      <trkpt lat="43.87917" lon="3.66707">
        <ele>711.66941450303</ele>
        <time>2016-05-07T13:20:59Z</time>
      </trkpt>
      <trkpt lat="43.87853" lon="3.66551">
        <ele>713.48005391122</ele>
        <time>2016-05-07T13:23:08Z</time>
      </trkpt>
      <trkpt lat="43.87851" lon="3.66537">
        <ele>715.02110006581</ele>
        <time>2016-05-07T13:23:08Z</time>
      </trkpt>
      <trkpt lat="43.87827" lon="3.66478">
        <ele>716.7670753335</ele>
        <time>2016-05-07T13:24:00Z</time>
      </trkpt>
      <trkpt lat="43.87814" lon="3.66459">
        <ele>718.42190314921</ele>
        <time>2016-05-07T13:24:13Z</time>
      </trkpt>
      <trkpt lat="43.87808" lon="3.66451">
        <ele>718.42190314921</ele>
        <time>2016-05-07T13:24:17Z</time>
      </trkpt>
      <trkpt lat="43.8777" lon="3.66415">
        <ele>720.43186254899</ele>
        <time>2016-05-07T13:25:02Z</time>
      </trkpt>
      <trkpt lat="43.87766" lon="3.66414">
        <ele>720.43186254899</ele>
        <time>2016-05-07T13:25:03Z</time>
      </trkpt>
      <trkpt lat="43.87736" lon="3.66387">
        <ele>722.60397560081</ele>
        <time>2016-05-07T13:25:42Z</time>
      </trkpt>
      <trkpt lat="43.8773" lon="3.66379">
        <ele>722.60397560081</ele>
        <time>2016-05-07T13:25:42Z</time>
      </trkpt>
      <trkpt lat="43.87718" lon="3.66363">
        <ele>724.64348314042</ele>
        <time>2016-05-07T13:26:24Z</time>
      </trkpt>
      <trkpt lat="43.87702" lon="3.66335">
        <ele>726.63771380383</ele>
        <time>2016-05-07T13:26:24Z</time>
      </trkpt>
      <trkpt lat="43.87684" lon="3.66286">
        <ele>728.75395982496</ele>
        <time>2016-05-07T13:27:08Z</time>
      </trkpt>
      <trkpt lat="43.87682" lon="3.66277">
        <ele>728.75395982496</ele>
        <time>2016-05-07T13:27:08Z</time>
      </trkpt>
      <trkpt lat="43.87674" lon="3.6623">
        <ele>730.85844522119</ele>
        <time>2016-05-07T13:27:37Z</time>
      </trkpt>
      <trkpt lat="43.87672" lon="3.66222">
        <ele>730.85844522119</ele>
        <time>2016-05-07T13:27:44Z</time>
      </trkpt>
      <trkpt lat="43.8767" lon="3.66214">
        <ele>732.72616265298</ele>
        <time>2016-05-07T13:27:46Z</time>
      </trkpt>
      <trkpt lat="43.87668" lon="3.662">
        <ele>734.36525180372</ele>
        <time>2016-05-07T13:28:00Z</time>
      </trkpt>
      <trkpt lat="43.87649" lon="3.66122">
        <ele>735.94220585212</ele>
        <time>2016-05-07T13:29:09Z</time>
      </trkpt>
      <trkpt lat="43.87652" lon="3.6611">
        <ele>735.94220585212</ele>
        <time>2016-05-07T13:29:09Z</time>
      </trkpt>
      <trkpt lat="43.87657" lon="3.66085">
        <ele>737.92829502255</ele>
        <time>2016-05-07T13:29:27Z</time>
      </trkpt>
      <trkpt lat="43.87644" lon="3.66045">
        <ele>739.93737869832</ele>
        <time>2016-05-07T13:30:05Z</time>
      </trkpt>
      <trkpt lat="43.8764" lon="3.66038">
        <ele>739.93737869832</ele>
        <time>2016-05-07T13:30:06Z</time>
      </trkpt>
      <trkpt lat="43.87635" lon="3.66019">
        <ele>742.11579872858</ele>
        <time>2016-05-07T13:30:18Z</time>
      </trkpt>
      <trkpt lat="43.87635" lon="3.65973">
        <ele>744.42553465392</ele>
        <time>2016-05-07T13:30:50Z</time>
      </trkpt>
      <trkpt lat="43.87621" lon="3.65885">
        <ele>747.63781655231</ele>
        <time>2016-05-07T13:31:51Z</time>
      </trkpt>
      <trkpt lat="43.87619" lon="3.65879">
        <ele>747.63781655231</ele>
        <time>2016-05-07T13:32:00Z</time>
      </trkpt>
      <trkpt lat="43.87585" lon="3.65787">
        <ele>751.38366807086</ele>
        <time>2016-05-07T13:33:08Z</time>
      </trkpt>
      <trkpt lat="43.87581" lon="3.65775">
        <ele>755.00250218176</ele>
        <time>2016-05-07T13:33:08Z</time>
      </trkpt>
      <trkpt lat="43.87559" lon="3.65733">
        <ele>758.71830043473</ele>
        <time>2016-05-07T13:33:49Z</time>
      </trkpt>
      <trkpt lat="43.87553" lon="3.65723">
        <ele>762.11849809217</ele>
        <time>2016-05-07T13:33:50Z</time>
      </trkpt>
      <trkpt lat="43.87501" lon="3.65638">
        <ele>765.68626272623</ele>
        <time>2016-05-07T13:35:05Z</time>
      </trkpt>
      <trkpt lat="43.87497" lon="3.65632">
        <ele>765.68626272623</ele>
        <time>2016-05-07T13:35:09Z</time>
      </trkpt>
      <trkpt lat="43.87487" lon="3.65604">
        <ele>769.79663183492</ele>
        <time>2016-05-07T13:35:27Z</time>
      </trkpt>
      <trkpt lat="43.87468" lon="3.65568">
        <ele>773.80110759484</ele>
        <time>2016-05-07T13:35:51Z</time>
      </trkpt>
      <trkpt lat="43.87448" lon="3.65544">
        <ele>777.66107990244</ele>
        <time>2016-05-07T13:36:24Z</time>
      </trkpt>
      <trkpt lat="43.87373" lon="3.65501">
        <ele>782.0616708263</ele>
        <time>2016-05-07T13:37:32Z</time>
      </trkpt>
      <trkpt lat="43.87329" lon="3.65461">
        <ele>786.65615205928</ele>
        <time>2016-05-07T13:38:22Z</time>
      </trkpt>
      <trkpt lat="43.87322" lon="3.65453">
        <ele>786.65615205928</ele>
        <time>2016-05-07T13:38:22Z</time>
      </trkpt>
      <trkpt lat="43.87311" lon="3.6542">
        <ele>791.2956221205</ele>
        <time>2016-05-07T13:38:49Z</time>
      </trkpt>
      <trkpt lat="43.87301" lon="3.65399">
        <ele>795.64021856321</ele>
        <time>2016-05-07T13:39:02Z</time>
      </trkpt>
      <trkpt lat="43.87293" lon="3.65378">
        <ele>799.73614782645</ele>
        <time>2016-05-07T13:39:20Z</time>
      </trkpt>
      <trkpt lat="43.87288" lon="3.65368">
        <ele>803.43958538516</ele>
        <time>2016-05-07T13:39:26Z</time>
      </trkpt>
      <trkpt lat="43.87272" lon="3.65339">
        <ele>807.02190439927</ele>
        <time>2016-05-07T13:39:49Z</time>
      </trkpt>
      <trkpt lat="43.8727" lon="3.65338">
        <ele>807.02190439927</ele>
        <time>2016-05-07T13:39:51Z</time>
      </trkpt>
      <trkpt lat="43.87258" lon="3.65321">
        <ele>810.41786525273</ele>
        <time>2016-05-07T13:40:08Z</time>
      </trkpt>
      <trkpt lat="43.87255" lon="3.65315">
        <ele>810.41786525273</ele>
        <time>2016-05-07T13:40:08Z</time>
      </trkpt>
      <trkpt lat="43.87251" lon="3.65306">
        <ele>813.4955189865</ele>
        <time>2016-05-07T13:40:16Z</time>
      </trkpt>
      <trkpt lat="43.87243" lon="3.65274">
        <ele>816.50822445533</ele>
        <time>2016-05-07T13:40:53Z</time>
      </trkpt>
      <trkpt lat="43.87232" lon="3.65239">
        <ele>819.3450773861</ele>
        <time>2016-05-07T13:41:01Z</time>
      </trkpt>
      <trkpt lat="43.87227" lon="3.65228">
        <ele>819.3450773861</ele>
        <time>2016-05-07T13:41:08Z</time>
      </trkpt>
      <trkpt lat="43.87224" lon="3.65219">
        <ele>821.99031197518</ele>
        <time>2016-05-07T13:41:16Z</time>
      </trkpt>
      <trkpt lat="43.87214" lon="3.65199">
        <ele>824.42988651002</ele>
        <time>2016-05-07T13:41:41Z</time>
      </trkpt>
      <trkpt lat="43.87207" lon="3.65189">
        <ele>826.63698053941</ele>
        <time>2016-05-07T13:41:41Z</time>
      </trkpt>
      <trkpt lat="43.872" lon="3.65175">
        <ele>828.63064738464</ele>
        <time>2016-05-07T13:41:59Z</time>
      </trkpt>
      <trkpt lat="43.87193" lon="3.65162">
        <ele>830.40032790443</ele>
        <time>2016-05-07T13:42:00Z</time>
      </trkpt>
      <trkpt lat="43.87154" lon="3.65072">
        <ele>832.58537033924</ele>
        <time>2016-05-07T13:43:14Z</time>
      </trkpt>
      <trkpt lat="43.87151" lon="3.6506">
        <ele>834.53763059948</ele>
        <time>2016-05-07T13:43:14Z</time>
      </trkpt>
      <trkpt lat="43.87148" lon="3.65039">
        <ele>836.27689498821</ele>
        <time>2016-05-07T13:43:30Z</time>
      </trkpt>
      <trkpt lat="43.8714" lon="3.6502">
        <ele>837.85089526736</ele>
        <time>2016-05-07T13:43:46Z</time>
      </trkpt>
      <trkpt lat="43.87132" lon="3.64991">
        <ele>839.39075853914</ele>
        <time>2016-05-07T13:44:01Z</time>
      </trkpt>
      <trkpt lat="43.87116" lon="3.64964">
        <ele>840.91716041352</ele>
        <time>2016-05-07T13:44:24Z</time>
      </trkpt>
      <trkpt lat="43.871" lon="3.64951">
        <ele>842.34837228717</ele>
        <time>2016-05-07T13:44:48Z</time>
      </trkpt>
      <trkpt lat="43.87074" lon="3.64933">
        <ele>843.94033885873</ele>
        <time>2016-05-07T13:45:09Z</time>
      </trkpt>
      <trkpt lat="43.87061" lon="3.64928">
        <ele>845.41089164472</ele>
        <time>2016-05-07T13:45:16Z</time>
      </trkpt>
      <trkpt lat="43.87043" lon="3.64876">
        <ele>847.17618660071</ele>
        <time>2016-05-07T13:46:02Z</time>
      </trkpt>
      <trkpt lat="43.87036" lon="3.64829">
        <ele>849.10211067344</ele>
        <time>2016-05-07T13:46:30Z</time>
      </trkpt>
      <trkpt lat="43.87036" lon="3.64813">
        <ele>850.89094358665</ele>
        <time>2016-05-07T13:46:36Z</time>
      </trkpt>
      <trkpt lat="43.87028" lon="3.6477">
        <ele>852.67065357343</ele>
        <time>2016-05-07T13:47:09Z</time>
      </trkpt>
      <trkpt lat="43.87027" lon="3.64759">
        <ele>852.67065357343</ele>
        <time>2016-05-07T13:47:09Z</time>
      </trkpt>
      <trkpt lat="43.87024" lon="3.64722">
        <ele>854.76151071105</ele>
        <time>2016-05-07T13:47:31Z</time>
      </trkpt>
      <trkpt lat="43.8702" lon="3.64698">
        <ele>856.82521673465</ele>
        <time>2016-05-07T13:47:46Z</time>
      </trkpt>
      <trkpt lat="43.87015" lon="3.64676">
        <ele>858.85095472062</ele>
        <time>2016-05-07T13:48:01Z</time>
      </trkpt>
      <trkpt lat="43.86986" lon="3.64558">
        <ele>861.76545429271</ele>
        <time>2016-05-07T13:49:21Z</time>
      </trkpt>
      <trkpt lat="43.86986" lon="3.64555">
        <ele>861.76545429271</ele>
        <time>2016-05-07T13:49:22Z</time>
      </trkpt>
      <trkpt lat="43.86983" lon="3.64446">
        <ele>865.09897952231</ele>
        <time>2016-05-07T13:50:35Z</time>
      </trkpt>
      <trkpt lat="43.8697" lon="3.64365">
        <ele>868.74651590815</ele>
        <time>2016-05-07T13:51:32Z</time>
      </trkpt>
      <trkpt lat="43.86954" lon="3.6431">
        <ele>872.72511650087</ele>
        <time>2016-05-07T13:52:01Z</time>
      </trkpt>
      <trkpt lat="43.86947" lon="3.64245">
        <ele>876.83344459328</ele>
        <time>2016-05-07T13:52:51Z</time>
      </trkpt>
      <trkpt lat="43.86948" lon="3.64232">
        <ele>880.58192837751</ele>
        <time>2016-05-07T13:52:51Z</time>
      </trkpt>
      <trkpt lat="43.86948" lon="3.64231">
        <ele>880.58192837751</ele>
        <time>2016-05-07T13:52:52Z</time>
      </trkpt>
      <trkpt lat="43.86947" lon="3.6422">
        <ele>883.97911016144</ele>
        <time>2016-05-07T13:52:59Z</time>
      </trkpt>
      <trkpt lat="43.86925" lon="3.64041">
        <ele>888.87851265027</ele>
        <time>2016-05-07T13:55:04Z</time>
      </trkpt>
      <trkpt lat="43.86885" lon="3.63974">
        <ele>893.76520889446</ele>
        <time>2016-05-07T13:55:59Z</time>
      </trkpt>
      <trkpt lat="43.86882" lon="3.63972">
        <ele>893.76520889446</ele>
        <time>2016-05-07T13:56:01Z</time>
      </trkpt>
      <trkpt lat="43.86871" lon="3.63964">
        <ele>898.17234296815</ele>
        <time>2016-05-07T13:56:19Z</time>
      </trkpt>
      <trkpt lat="43.86863" lon="3.63953">
        <ele>902.14430699551</ele>
        <time>2016-05-07T13:56:19Z</time>
      </trkpt>
      <trkpt lat="43.86831" lon="3.63904">
        <ele>905.37763874598</ele>
        <time>2016-05-07T13:57:02Z</time>
      </trkpt>
      <trkpt lat="43.868" lon="3.63843">
        <ele>907.70858811883</ele>
        <time>2016-05-07T13:57:53Z</time>
      </trkpt>
      <trkpt lat="43.86793" lon="3.63819">
        <ele>909.91033701575</ele>
        <time>2016-05-07T13:58:09Z</time>
      </trkpt>
      <trkpt lat="43.86788" lon="3.63806">
        <ele>911.87825512314</ele>
        <time>2016-05-07T13:58:26Z</time>
      </trkpt>
      <trkpt lat="43.86786" lon="3.63736">
        <ele>913.58815888275</ele>
        <time>2016-05-07T13:59:07Z</time>
      </trkpt>
      <trkpt lat="43.86786" lon="3.63726">
        <ele>913.58815888275</ele>
        <time>2016-05-07T13:59:08Z</time>
      </trkpt>
      <trkpt lat="43.8679" lon="3.63669">
        <ele>916.14247349732</ele>
        <time>2016-05-07T13:59:59Z</time>
      </trkpt>
      <trkpt lat="43.8679" lon="3.63668">
        <ele>916.14247349732</ele>
        <time>2016-05-07T14:00:01Z</time>
      </trkpt>
      <trkpt lat="43.86791" lon="3.63659">
        <ele>916.14247349732</ele>
        <time>2016-05-07T14:00:12Z</time>
      </trkpt>
      <trkpt lat="43.86788" lon="3.63642">
        <ele>918.83097206964</ele>
        <time>2016-05-07T14:00:34Z</time>
      </trkpt>
      <trkpt lat="43.86797" lon="3.63635">
        <ele>920.89437385683</ele>
        <time>2016-05-07T14:01:01Z</time>
      </trkpt>
      <trkpt lat="43.86801" lon="3.63633">
        <ele>920.89437385683</ele>
        <time>2016-05-07T14:01:10Z</time>
      </trkpt>
      <trkpt lat="43.86805" lon="3.63632">
        <ele>920.89437385683</ele>
        <time>2016-05-07T14:01:43Z</time>
      </trkpt>
      <trkpt lat="43.8679" lon="3.63625">
        <ele>920.83833497435</ele>
        <time>2016-05-07T14:12:02Z</time>
      </trkpt>
      <trkpt lat="43.86789" lon="3.63628">
        <ele>920.83833497435</ele>
        <time>2016-05-07T14:12:16Z</time>
      </trkpt>
      <trkpt lat="43.86789" lon="3.63634">
        <ele>920.83833497435</ele>
        <time>2016-05-07T14:12:21Z</time>
      </trkpt>
      <trkpt lat="43.86785" lon="3.63756">
        <ele>921.14641784815</ele>
        <time>2016-05-07T14:14:00Z</time>
      </trkpt>
      <trkpt lat="43.86789" lon="3.63806">
        <ele>920.73210174033</ele>
        <time>2016-05-07T14:14:16Z</time>
      </trkpt>
      <trkpt lat="43.86819" lon="3.63902">
        <ele>917.65395210792</ele>
        <time>2016-05-07T14:15:19Z</time>
      </trkpt>
      <trkpt lat="43.86821" lon="3.63904">
        <ele>917.65395210792</ele>
        <time>2016-05-07T14:15:26Z</time>
      </trkpt>
      <trkpt lat="43.8686" lon="3.63947">
        <ele>914.64565177301</ele>
        <time>2016-05-07T14:16:06Z</time>
      </trkpt>
      <trkpt lat="43.86879" lon="3.63968">
        <ele>912.35192142305</ele>
        <time>2016-05-07T14:16:20Z</time>
      </trkpt>
      <trkpt lat="43.8688" lon="3.63969">
        <ele>912.35192142305</ele>
        <time>2016-05-07T14:16:21Z</time>
      </trkpt>
      <trkpt lat="43.86894" lon="3.63983">
        <ele>910.18627499018</ele>
        <time>2016-05-07T14:16:44Z</time>
      </trkpt>
      <trkpt lat="43.86908" lon="3.64002">
        <ele>908.09476486387</ele>
        <time>2016-05-07T14:17:00Z</time>
      </trkpt>
      <trkpt lat="43.86922" lon="3.64037">
        <ele>906.18552950783</ele>
        <time>2016-05-07T14:17:16Z</time>
      </trkpt>
      <trkpt lat="43.86922" lon="3.64039">
        <ele>906.18552950783</ele>
        <time>2016-05-07T14:17:16Z</time>
      </trkpt>
      <trkpt lat="43.86943" lon="3.6421">
        <ele>902.81428967764</ele>
        <time>2016-05-07T14:19:00Z</time>
      </trkpt>
      <trkpt lat="43.86943" lon="3.64217">
        <ele>902.81428967764</ele>
        <time>2016-05-07T14:19:04Z</time>
      </trkpt>
      <trkpt lat="43.86962" lon="3.6435">
        <ele>898.13310017314</ele>
        <time>2016-05-07T14:20:18Z</time>
      </trkpt>
      <trkpt lat="43.86963" lon="3.64355">
        <ele>898.13310017314</ele>
        <time>2016-05-07T14:20:21Z</time>
      </trkpt>
      <trkpt lat="43.8697" lon="3.64377">
        <ele>893.51119247702</ele>
        <time>2016-05-07T14:20:43Z</time>
      </trkpt>
      <trkpt lat="43.86973" lon="3.64389">
        <ele>889.17914493996</ele>
        <time>2016-05-07T14:20:51Z</time>
      </trkpt>
      <trkpt lat="43.86976" lon="3.64403">
        <ele>884.96035000153</ele>
        <time>2016-05-07T14:20:51Z</time>
      </trkpt>
      <trkpt lat="43.86985" lon="3.64522">
        <ele>880.07081371496</ele>
        <time>2016-05-07T14:22:04Z</time>
      </trkpt>
      <trkpt lat="43.86986" lon="3.64538">
        <ele>875.38525932141</ele>
        <time>2016-05-07T14:22:10Z</time>
      </trkpt>
      <trkpt lat="43.86997" lon="3.64621">
        <ele>870.25764420807</ele>
        <time>2016-05-07T14:23:00Z</time>
      </trkpt>
      <trkpt lat="43.8702" lon="3.64716">
        <ele>864.91162053137</ele>
        <time>2016-05-07T14:24:03Z</time>
      </trkpt>
      <trkpt lat="43.87021" lon="3.64718">
        <ele>864.91162053137</ele>
        <time>2016-05-07T14:24:03Z</time>
      </trkpt>
      <trkpt lat="43.87025" lon="3.64742">
        <ele>859.7563214895</ele>
        <time>2016-05-07T14:24:19Z</time>
      </trkpt>
      <trkpt lat="43.87034" lon="3.64804">
        <ele>854.30514626572</ele>
        <time>2016-05-07T14:25:06Z</time>
      </trkpt>
      <trkpt lat="43.87037" lon="3.64833">
        <ele>849.01547533337</ele>
        <time>2016-05-07T14:25:17Z</time>
      </trkpt>
      <trkpt lat="43.87042" lon="3.6486">
        <ele>844.00749505213</ele>
        <time>2016-05-07T14:25:32Z</time>
      </trkpt>
      <trkpt lat="43.87108" lon="3.64956">
        <ele>838.49776273116</ele>
        <time>2016-05-07T14:27:08Z</time>
      </trkpt>
      <trkpt lat="43.87108" lon="3.64959">
        <ele>838.49776273116</ele>
        <time>2016-05-07T14:27:08Z</time>
      </trkpt>
      <trkpt lat="43.87135" lon="3.65007">
        <ele>833.21678713361</ele>
        <time>2016-05-07T14:28:17Z</time>
      </trkpt>
      <trkpt lat="43.87141" lon="3.6503">
        <ele>828.40790275669</ele>
        <time>2016-05-07T14:28:38Z</time>
      </trkpt>
      <trkpt lat="43.87144" lon="3.65042">
        <ele>824.07853874229</ele>
        <time>2016-05-07T14:28:38Z</time>
      </trkpt>
      <trkpt lat="43.87154" lon="3.65083">
        <ele>820.03193959373</ele>
        <time>2016-05-07T14:29:04Z</time>
      </trkpt>
      <trkpt lat="43.87161" lon="3.65099">
        <ele>816.35828905844</ele>
        <time>2016-05-07T14:29:16Z</time>
      </trkpt>
      <trkpt lat="43.87162" lon="3.65108">
        <ele>816.35828905844</ele>
        <time>2016-05-07T14:29:21Z</time>
      </trkpt>
      <trkpt lat="43.8717" lon="3.65123">
        <ele>812.90899969586</ele>
        <time>2016-05-07T14:29:31Z</time>
      </trkpt>
      <trkpt lat="43.87174" lon="3.6513">
        <ele>812.90899969586</ele>
        <time>2016-05-07T14:29:36Z</time>
      </trkpt>
      <trkpt lat="43.87183" lon="3.65148">
        <ele>809.70378340382</ele>
        <time>2016-05-07T14:29:51Z</time>
      </trkpt>
      <trkpt lat="43.87187" lon="3.65155">
        <ele>809.70378340382</ele>
        <time>2016-05-07T14:29:56Z</time>
      </trkpt>
      <trkpt lat="43.87196" lon="3.6517">
        <ele>806.83178280632</ele>
        <time>2016-05-07T14:30:06Z</time>
      </trkpt>
      <trkpt lat="43.87207" lon="3.6519">
        <ele>804.25889553114</ele>
        <time>2016-05-07T14:30:21Z</time>
      </trkpt>
      <trkpt lat="43.8722" lon="3.6521">
        <ele>801.85135583671</ele>
        <time>2016-05-07T14:30:42Z</time>
      </trkpt>
      <trkpt lat="43.87222" lon="3.65214">
        <ele>801.85135583671</ele>
        <time>2016-05-07T14:30:42Z</time>
      </trkpt>
      <trkpt lat="43.87232" lon="3.65245">
        <ele>799.64285443327</ele>
        <time>2016-05-07T14:31:07Z</time>
      </trkpt>
      <trkpt lat="43.87236" lon="3.65255">
        <ele>799.64285443327</ele>
        <time>2016-05-07T14:31:07Z</time>
      </trkpt>
      <trkpt lat="43.87248" lon="3.65311">
        <ele>797.50512271019</ele>
        <time>2016-05-07T14:31:45Z</time>
      </trkpt>
      <trkpt lat="43.8728" lon="3.65354">
        <ele>794.62700254837</ele>
        <time>2016-05-07T14:32:16Z</time>
      </trkpt>
      <trkpt lat="43.87309" lon="3.65424">
        <ele>790.95037529473</ele>
        <time>2016-05-07T14:33:04Z</time>
      </trkpt>
      <trkpt lat="43.87312" lon="3.65433">
        <ele>790.95037529473</ele>
        <time>2016-05-07T14:33:12Z</time>
      </trkpt>
      <trkpt lat="43.87317" lon="3.65447">
        <ele>787.5041263482</ele>
        <time>2016-05-07T14:33:24Z</time>
      </trkpt>
      <trkpt lat="43.87322" lon="3.65455">
        <ele>787.5041263482</ele>
        <time>2016-05-07T14:33:27Z</time>
      </trkpt>
      <trkpt lat="43.87335" lon="3.65466">
        <ele>784.11652348753</ele>
        <time>2016-05-07T14:33:46Z</time>
      </trkpt>
      <trkpt lat="43.8736" lon="3.6549">
        <ele>780.88737664904</ele>
        <time>2016-05-07T14:34:03Z</time>
      </trkpt>
      <trkpt lat="43.87435" lon="3.65536">
        <ele>777.27433442115</ele>
        <time>2016-05-07T14:35:07Z</time>
      </trkpt>
      <trkpt lat="43.87436" lon="3.65536">
        <ele>777.27433442115</ele>
        <time>2016-05-07T14:35:07Z</time>
      </trkpt>
      <trkpt lat="43.87469" lon="3.65567">
        <ele>773.64034758154</ele>
        <time>2016-05-07T14:35:43Z</time>
      </trkpt>
      <trkpt lat="43.87474" lon="3.65573">
        <ele>773.64034758154</ele>
        <time>2016-05-07T14:35:43Z</time>
      </trkpt>
      <trkpt lat="43.87491" lon="3.65616">
        <ele>769.70181498621</ele>
        <time>2016-05-07T14:36:14Z</time>
      </trkpt>
      <trkpt lat="43.87492" lon="3.65619">
        <ele>769.70181498621</ele>
        <time>2016-05-07T14:36:16Z</time>
      </trkpt>
      <trkpt lat="43.87523" lon="3.65682">
        <ele>765.74418584646</ele>
        <time>2016-05-07T14:37:07Z</time>
      </trkpt>
      <trkpt lat="43.87528" lon="3.65693">
        <ele>765.74418584646</ele>
        <time>2016-05-07T14:37:07Z</time>
      </trkpt>
      <trkpt lat="43.87552" lon="3.65724">
        <ele>761.91645537179</ele>
        <time>2016-05-07T14:37:33Z</time>
      </trkpt>
      <trkpt lat="43.87554" lon="3.65727">
        <ele>761.91645537179</ele>
        <time>2016-05-07T14:37:34Z</time>
      </trkpt>
      <trkpt lat="43.87577" lon="3.65769">
        <ele>758.32724712398</ele>
        <time>2016-05-07T14:38:07Z</time>
      </trkpt>
      <trkpt lat="43.87599" lon="3.65824">
        <ele>754.6007390318</ele>
        <time>2016-05-07T14:38:45Z</time>
      </trkpt>
      <trkpt lat="43.87602" lon="3.65836">
        <ele>751.29678288043</ele>
        <time>2016-05-07T14:38:48Z</time>
      </trkpt>
      <trkpt lat="43.87609" lon="3.65856">
        <ele>748.35626700341</ele>
        <time>2016-05-07T14:39:00Z</time>
      </trkpt>
      <trkpt lat="43.87624" lon="3.65906">
        <ele>745.34851971899</ele>
        <time>2016-05-07T14:39:31Z</time>
      </trkpt>
      <trkpt lat="43.87634" lon="3.65977">
        <ele>741.96098131668</ele>
        <time>2016-05-07T14:40:12Z</time>
      </trkpt>
      <trkpt lat="43.87647" lon="3.66052">
        <ele>738.30846222703</ele>
        <time>2016-05-07T14:41:00Z</time>
      </trkpt>
      <trkpt lat="43.87656" lon="3.66078">
        <ele>734.81497209939</ele>
        <time>2016-05-07T14:41:35Z</time>
      </trkpt>
      <trkpt lat="43.8765" lon="3.66128">
        <ele>731.09458204788</ele>
        <time>2016-05-07T14:41:59Z</time>
      </trkpt>
      <trkpt lat="43.87644" lon="3.66141">
        <ele>727.77017064116</ele>
        <time>2016-05-07T14:41:59Z</time>
      </trkpt>
      <trkpt lat="43.8766" lon="3.66195">
        <ele>724.66824574118</ele>
        <time>2016-05-07T14:42:40Z</time>
      </trkpt>
      <trkpt lat="43.87668" lon="3.66207">
        <ele>721.95877667743</ele>
        <time>2016-05-07T14:42:40Z</time>
      </trkpt>
      <trkpt lat="43.87702" lon="3.66341">
        <ele>718.40016327415</ele>
        <time>2016-05-07T14:44:08Z</time>
      </trkpt>
      <trkpt lat="43.87707" lon="3.66351">
        <ele>718.40016327415</ele>
        <time>2016-05-07T14:44:10Z</time>
      </trkpt>
      <trkpt lat="43.8778" lon="3.66425">
        <ele>714.01159978776</ele>
        <time>2016-05-07T14:45:18Z</time>
      </trkpt>
      <trkpt lat="43.87783" lon="3.66428">
        <ele>714.01159978776</ele>
        <time>2016-05-07T14:45:25Z</time>
      </trkpt>
      <trkpt lat="43.8781" lon="3.66454">
        <ele>710.06687819017</ele>
        <time>2016-05-07T14:45:44Z</time>
      </trkpt>
      <trkpt lat="43.87813" lon="3.66456">
        <ele>710.06687819017</ele>
        <time>2016-05-07T14:45:47Z</time>
      </trkpt>
      <trkpt lat="43.87817" lon="3.6646">
        <ele>710.06687819017</ele>
        <time>2016-05-07T14:45:51Z</time>
      </trkpt>
      <trkpt lat="43.87825" lon="3.66472">
        <ele>706.519946481</ele>
        <time>2016-05-07T14:46:01Z</time>
      </trkpt>
      <trkpt lat="43.87829" lon="3.66478">
        <ele>706.519946481</ele>
        <time>2016-05-07T14:46:06Z</time>
      </trkpt>
      <trkpt lat="43.87836" lon="3.66491">
        <ele>703.21165343405</ele>
        <time>2016-05-07T14:46:16Z</time>
      </trkpt>
      <trkpt lat="43.87841" lon="3.665">
        <ele>703.21165343405</ele>
        <time>2016-05-07T14:46:21Z</time>
      </trkpt>
      <trkpt lat="43.87843" lon="3.66509">
        <ele>700.22437601455</ele>
        <time>2016-05-07T14:46:26Z</time>
      </trkpt>
      <trkpt lat="43.87847" lon="3.66516">
        <ele>700.22437601455</ele>
        <time>2016-05-07T14:46:31Z</time>
      </trkpt>
      <trkpt lat="43.87852" lon="3.66524">
        <ele>697.34525378575</ele>
        <time>2016-05-07T14:46:36Z</time>
      </trkpt>
      <trkpt lat="43.87855" lon="3.66539">
        <ele>694.54963949222</ele>
        <time>2016-05-07T14:46:46Z</time>
      </trkpt>
      <trkpt lat="43.87855" lon="3.66547">
        <ele>694.54963949222</ele>
        <time>2016-05-07T14:46:51Z</time>
      </trkpt>
      <trkpt lat="43.87855" lon="3.66563">
        <ele>691.77118591807</ele>
        <time>2016-05-07T14:47:01Z</time>
      </trkpt>
      <trkpt lat="43.87855" lon="3.6657">
        <ele>691.77118591807</ele>
        <time>2016-05-07T14:47:06Z</time>
      </trkpt>
      <trkpt lat="43.87853" lon="3.6658">
        <ele>689.35185117658</ele>
        <time>2016-05-07T14:47:16Z</time>
      </trkpt>
      <trkpt lat="43.87855" lon="3.66626">
        <ele>687.33363512237</ele>
        <time>2016-05-07T14:47:47Z</time>
      </trkpt>
      <trkpt lat="43.87867" lon="3.66649">
        <ele>685.69667632145</ele>
        <time>2016-05-07T14:48:08Z</time>
      </trkpt>
      <trkpt lat="43.87895" lon="3.66679">
        <ele>684.56562294173</ele>
        <time>2016-05-07T14:48:30Z</time>
      </trkpt>
      <trkpt lat="43.87909" lon="3.66695">
        <ele>683.66547338024</ele>
        <time>2016-05-07T14:48:44Z</time>
      </trkpt>
      <trkpt lat="43.87921" lon="3.6672">
        <ele>682.69759091548</ele>
        <time>2016-05-07T14:49:04Z</time>
      </trkpt>
      <trkpt lat="43.8794" lon="3.66742">
        <ele>682.27901996176</ele>
        <time>2016-05-07T14:49:21Z</time>
      </trkpt>
      <trkpt lat="43.87945" lon="3.66748">
        <ele>682.27901996176</ele>
        <time>2016-05-07T14:49:23Z</time>
      </trkpt>
      <trkpt lat="43.87955" lon="3.66763">
        <ele>681.92800878494</ele>
        <time>2016-05-07T14:49:39Z</time>
      </trkpt>
      <trkpt lat="43.8796" lon="3.66773">
        <ele>681.92800878494</ele>
        <time>2016-05-07T14:49:41Z</time>
      </trkpt>
      <trkpt lat="43.87964" lon="3.66788">
        <ele>681.70249817811</ele>
        <time>2016-05-07T14:49:57Z</time>
      </trkpt>
      <trkpt lat="43.87968" lon="3.66802">
        <ele>681.5406547158</ele>
        <time>2016-05-07T14:49:58Z</time>
      </trkpt>
      <trkpt lat="43.87968" lon="3.66803">
        <ele>681.5406547158</ele>
        <time>2016-05-07T14:49:59Z</time>
      </trkpt>
      <trkpt lat="43.87972" lon="3.6685">
        <ele>681.21221668933</ele>
        <time>2016-05-07T14:50:27Z</time>
      </trkpt>
      <trkpt lat="43.87974" lon="3.66876">
        <ele>681.1097302091</ele>
        <time>2016-05-07T14:50:41Z</time>
      </trkpt>
      <trkpt lat="43.87977" lon="3.66905">
        <ele>681.03441217311</ele>
        <time>2016-05-07T14:51:00Z</time>
      </trkpt>
      <trkpt lat="43.87985" lon="3.66978">
        <ele>680.8310164187</ele>
        <time>2016-05-07T14:51:42Z</time>
      </trkpt>
      <trkpt lat="43.87985" lon="3.66982">
        <ele>680.8310164187</ele>
        <time>2016-05-07T14:51:42Z</time>
      </trkpt>
      <trkpt lat="43.87985" lon="3.6699">
        <ele>680.8310164187</ele>
        <time>2016-05-07T14:51:46Z</time>
      </trkpt>
      <trkpt lat="43.87988" lon="3.66999">
        <ele>680.67330594425</ele>
        <time>2016-05-07T14:51:51Z</time>
      </trkpt>
      <trkpt lat="43.87991" lon="3.67019">
        <ele>680.53501875099</ele>
        <time>2016-05-07T14:52:02Z</time>
      </trkpt>
      <trkpt lat="43.87995" lon="3.6704">
        <ele>680.52168962413</ele>
        <time>2016-05-07T14:52:23Z</time>
      </trkpt>
      <trkpt lat="43.88014" lon="3.67114">
        <ele>680.34188040051</ele>
        <time>2016-05-07T14:52:59Z</time>
      </trkpt>
      <trkpt lat="43.88018" lon="3.67126">
        <ele>680.24506647854</ele>
        <time>2016-05-07T14:53:12Z</time>
      </trkpt>
      <trkpt lat="43.8802" lon="3.67159">
        <ele>680.10212954671</ele>
        <time>2016-05-07T14:53:30Z</time>
      </trkpt>
      <trkpt lat="43.87988" lon="3.67197">
        <ele>680.0388027576</ele>
        <time>2016-05-07T14:54:05Z</time>
      </trkpt>
      <trkpt lat="43.87984" lon="3.67202">
        <ele>680.0388027576</ele>
        <time>2016-05-07T14:54:09Z</time>
      </trkpt>
      <trkpt lat="43.87964" lon="3.67239">
        <ele>679.81133320933</ele>
        <time>2016-05-07T14:54:29Z</time>
      </trkpt>
      <trkpt lat="43.87967" lon="3.67291">
        <ele>679.43957690807</ele>
        <time>2016-05-07T14:55:02Z</time>
      </trkpt>
      <trkpt lat="43.88023" lon="3.67361">
        <ele>678.49584459532</ele>
        <time>2016-05-07T14:56:07Z</time>
      </trkpt>
      <trkpt lat="43.88028" lon="3.67364">
        <ele>678.49584459532</ele>
        <time>2016-05-07T14:56:07Z</time>
      </trkpt>
      <trkpt lat="43.88058" lon="3.67362">
        <ele>677.1909865007</ele>
        <time>2016-05-07T14:56:32Z</time>
      </trkpt>
      <trkpt lat="43.88091" lon="3.67364">
        <ele>675.7072101104</ele>
        <time>2016-05-07T14:57:00Z</time>
      </trkpt>
      <trkpt lat="43.88091" lon="3.67365">
        <ele>675.7072101104</ele>
        <time>2016-05-07T14:57:02Z</time>
      </trkpt>
      <trkpt lat="43.88094" lon="3.67386">
        <ele>673.75291908117</ele>
        <time>2016-05-07T14:57:56Z</time>
      </trkpt>
      <trkpt lat="43.88071" lon="3.67434">
        <ele>671.65033596966</ele>
        <time>2016-05-07T14:58:16Z</time>
      </trkpt>
      <trkpt lat="43.88043" lon="3.6749">
        <ele>668.7330916005</ele>
        <time>2016-05-07T14:59:12Z</time>
      </trkpt>
      <trkpt lat="43.8803" lon="3.67509">
        <ele>665.64001008812</ele>
        <time>2016-05-07T14:59:41Z</time>
      </trkpt>
      <trkpt lat="43.88021" lon="3.67542">
        <ele>662.47367302751</ele>
        <time>2016-05-07T15:00:00Z</time>
      </trkpt>
      <trkpt lat="43.8802" lon="3.67571">
        <ele>659.38712519793</ele>
        <time>2016-05-07T15:00:16Z</time>
      </trkpt>
      <trkpt lat="43.8802" lon="3.67579">
        <ele>659.38712519793</ele>
        <time>2016-05-07T15:00:17Z</time>
      </trkpt>
      <trkpt lat="43.88019" lon="3.67591">
        <ele>656.3779613665</ele>
        <time>2016-05-07T15:00:26Z</time>
      </trkpt>
      <trkpt lat="43.88019" lon="3.67601">
        <ele>656.3779613665</ele>
        <time>2016-05-07T15:00:31Z</time>
      </trkpt>
      <trkpt lat="43.88009" lon="3.67621">
        <ele>653.17003179111</ele>
        <time>2016-05-07T15:00:51Z</time>
      </trkpt>
      <trkpt lat="43.88008" lon="3.67621">
        <ele>653.17003179111</ele>
        <time>2016-05-07T15:00:51Z</time>
      </trkpt>
      <trkpt lat="43.87996" lon="3.67626">
        <ele>649.89721799285</ele>
        <time>2016-05-07T15:01:11Z</time>
      </trkpt>
      <trkpt lat="43.87992" lon="3.67626">
        <ele>649.89721799285</ele>
        <time>2016-05-07T15:01:16Z</time>
      </trkpt>
      <trkpt lat="43.8797" lon="3.67629">
        <ele>646.52529551185</ele>
        <time>2016-05-07T15:01:42Z</time>
      </trkpt>
      <trkpt lat="43.87958" lon="3.67637">
        <ele>643.28228356187</ele>
        <time>2016-05-07T15:01:52Z</time>
      </trkpt>
      <trkpt lat="43.87957" lon="3.67637">
        <ele>643.28228356187</ele>
        <time>2016-05-07T15:02:00Z</time>
      </trkpt>
      <trkpt lat="43.87949" lon="3.67651">
        <ele>640.17736866978</ele>
        <time>2016-05-07T15:02:13Z</time>
      </trkpt>
      <trkpt lat="43.87936" lon="3.67665">
        <ele>637.1466390368</ele>
        <time>2016-05-07T15:02:36Z</time>
      </trkpt>
      <trkpt lat="43.87931" lon="3.67669">
        <ele>637.1466390368</ele>
        <time>2016-05-07T15:02:36Z</time>
      </trkpt>
      <trkpt lat="43.87918" lon="3.67673">
        <ele>634.18832013639</ele>
        <time>2016-05-07T15:02:55Z</time>
      </trkpt>
      <trkpt lat="43.87907" lon="3.6768">
        <ele>631.25732556403</ele>
        <time>2016-05-07T15:03:05Z</time>
      </trkpt>
      <trkpt lat="43.87884" lon="3.67696">
        <ele>628.11003221358</ele>
        <time>2016-05-07T15:03:37Z</time>
      </trkpt>
      <trkpt lat="43.87869" lon="3.67696">
        <ele>624.91039398255</ele>
        <time>2016-05-07T15:03:51Z</time>
      </trkpt>
      <trkpt lat="43.87858" lon="3.67698">
        <ele>621.7239652102</ele>
        <time>2016-05-07T15:04:06Z</time>
      </trkpt>
      <trkpt lat="43.87854" lon="3.67698">
        <ele>621.7239652102</ele>
        <time>2016-05-07T15:04:15Z</time>
      </trkpt>
      <trkpt lat="43.8783" lon="3.67695">
        <ele>618.52493606535</ele>
        <time>2016-05-07T15:04:31Z</time>
      </trkpt>
      <trkpt lat="43.87802" lon="3.67699">
        <ele>614.94350709815</ele>
        <time>2016-05-07T15:05:05Z</time>
      </trkpt>
      <trkpt lat="43.87798" lon="3.67699">
        <ele>614.94350709815</ele>
        <time>2016-05-07T15:05:12Z</time>
      </trkpt>
      <trkpt lat="43.87738" lon="3.67696">
        <ele>611.02715325789</ele>
        <time>2016-05-07T15:06:16Z</time>
      </trkpt>
      <trkpt lat="43.87706" lon="3.6769">
        <ele>605.85518091018</ele>
        <time>2016-05-07T15:06:38Z</time>
      </trkpt>
      <trkpt lat="43.87691" lon="3.67686">
        <ele>600.7396300559</ele>
        <time>2016-05-07T15:06:53Z</time>
      </trkpt>
      <trkpt lat="43.87688" lon="3.67685">
        <ele>600.7396300559</ele>
        <time>2016-05-07T15:06:54Z</time>
      </trkpt>
      <trkpt lat="43.87666" lon="3.67682">
        <ele>595.42596026992</ele>
        <time>2016-05-07T15:07:20Z</time>
      </trkpt>
      <trkpt lat="43.87622" lon="3.67679">
        <ele>589.49141492471</ele>
        <time>2016-05-07T15:08:04Z</time>
      </trkpt>
      <trkpt lat="43.87614" lon="3.6768">
        <ele>589.49141492471</ele>
        <time>2016-05-07T15:08:06Z</time>
      </trkpt>
      <trkpt lat="43.87598" lon="3.67685">
        <ele>583.59790003629</ele>
        <time>2016-05-07T15:08:31Z</time>
      </trkpt>
      <trkpt lat="43.8759" lon="3.67688">
        <ele>583.59790003629</ele>
        <time>2016-05-07T15:08:31Z</time>
      </trkpt>
      <trkpt lat="43.8754" lon="3.67764">
        <ele>576.2688030522</ele>
        <time>2016-05-07T15:09:51Z</time>
      </trkpt>
      <trkpt lat="43.87541" lon="3.67772">
        <ele>576.2688030522</ele>
        <time>2016-05-07T15:09:58Z</time>
      </trkpt>
      <trkpt lat="43.8754" lon="3.67776">
        <ele>576.2688030522</ele>
        <time>2016-05-07T15:10:07Z</time>
      </trkpt>
      <trkpt lat="43.87535" lon="3.67788">
        <ele>569.10850833849</ele>
        <time>2016-05-07T15:10:27Z</time>
      </trkpt>
      <trkpt lat="43.87529" lon="3.678">
        <ele>561.94557548084</ele>
        <time>2016-05-07T15:10:54Z</time>
      </trkpt>
      <trkpt lat="43.87502" lon="3.67817">
        <ele>555.38471569459</ele>
        <time>2016-05-07T15:10:56Z</time>
      </trkpt>
      <trkpt lat="43.87483" lon="3.67874">
        <ele>548.67285723453</ele>
        <time>2016-05-07T15:11:38Z</time>
      </trkpt>
      <trkpt lat="43.87465" lon="3.67907">
        <ele>541.93382708961</ele>
        <time>2016-05-07T15:11:59Z</time>
      </trkpt>
      <trkpt lat="43.87465" lon="3.67919">
        <ele>541.93382708961</ele>
        <time>2016-05-07T15:12:03Z</time>
      </trkpt>
      <trkpt lat="43.87464" lon="3.67923">
        <ele>535.75770630204</ele>
        <time>2016-05-07T15:12:06Z</time>
      </trkpt>
      <trkpt lat="43.87465" lon="3.67928">
        <ele>535.75770630204</ele>
        <time>2016-05-07T15:12:22Z</time>
      </trkpt>
      <trkpt lat="43.87474" lon="3.67947">
        <ele>529.60851244418</ele>
        <time>2016-05-07T15:12:34Z</time>
      </trkpt>
      <trkpt lat="43.87477" lon="3.67954">
        <ele>529.60851244418</ele>
        <time>2016-05-07T15:12:52Z</time>
      </trkpt>
      <trkpt lat="43.87453" lon="3.67978">
        <ele>522.84513653671</ele>
        <time>2016-05-07T15:13:23Z</time>
      </trkpt>
      <trkpt lat="43.8742" lon="3.67999">
        <ele>515.37935586339</ele>
        <time>2016-05-07T15:14:13Z</time>
      </trkpt>
      <trkpt lat="43.87401" lon="3.68012">
        <ele>508.50012654225</ele>
        <time>2016-05-07T15:14:16Z</time>
      </trkpt>
      <trkpt lat="43.87373" lon="3.68023">
        <ele>501.87215934583</ele>
        <time>2016-05-07T15:14:41Z</time>
      </trkpt>
      <trkpt lat="43.87369" lon="3.68032">
        <ele>501.87215934583</ele>
        <time>2016-05-07T15:14:50Z</time>
      </trkpt>
      <trkpt lat="43.87369" lon="3.68033">
        <ele>501.87215934583</ele>
        <time>2016-05-07T15:14:51Z</time>
      </trkpt>
      <trkpt lat="43.87368" lon="3.68034">
        <ele>495.86107209653</ele>
        <time>2016-05-07T15:15:00Z</time>
      </trkpt>
      <trkpt lat="43.87363" lon="3.68034">
        <ele>495.86107209653</ele>
        <time>2016-05-07T15:15:06Z</time>
      </trkpt>
      <trkpt lat="43.87362" lon="3.68037">
        <ele>495.86107209653</ele>
        <time>2016-05-07T15:15:08Z</time>
      </trkpt>
      <trkpt lat="43.87352" lon="3.68051">
        <ele>490.47209653439</ele>
        <time>2016-05-07T15:15:21Z</time>
      </trkpt>
      <trkpt lat="43.87348" lon="3.68054">
        <ele>490.47209653439</ele>
        <time>2016-05-07T15:15:26Z</time>
      </trkpt>
      <trkpt lat="43.8734" lon="3.68071">
        <ele>485.60711960491</ele>
        <time>2016-05-07T15:15:44Z</time>
      </trkpt>
      <trkpt lat="43.87335" lon="3.68081">
        <ele>481.28872663475</ele>
        <time>2016-05-07T15:15:48Z</time>
      </trkpt>
      <trkpt lat="43.87323" lon="3.68086">
        <ele>477.44953043728</ele>
        <time>2016-05-07T15:16:02Z</time>
      </trkpt>
      <trkpt lat="43.87322" lon="3.68089">
        <ele>477.44953043728</ele>
        <time>2016-05-07T15:16:06Z</time>
      </trkpt>
      <trkpt lat="43.87311" lon="3.68102">
        <ele>474.12633312175</ele>
        <time>2016-05-07T15:16:24Z</time>
      </trkpt>
      <trkpt lat="43.87249" lon="3.68129">
        <ele>470.84712419658</ele>
        <time>2016-05-07T15:17:17Z</time>
      </trkpt>
      <trkpt lat="43.87248" lon="3.68129">
        <ele>470.84712419658</ele>
        <time>2016-05-07T15:17:23Z</time>
      </trkpt>
      <trkpt lat="43.87218" lon="3.68156">
        <ele>467.41918347853</ele>
        <time>2016-05-07T15:18:06Z</time>
      </trkpt>
      <trkpt lat="43.87208" lon="3.6816">
        <ele>464.42793034773</ele>
        <time>2016-05-07T15:18:16Z</time>
      </trkpt>
      <trkpt lat="43.87205" lon="3.68162">
        <ele>464.42793034773</ele>
        <time>2016-05-07T15:18:23Z</time>
      </trkpt>
      <trkpt lat="43.87159" lon="3.68172">
        <ele>461.20382117901</ele>
        <time>2016-05-07T15:19:08Z</time>
      </trkpt>
      <trkpt lat="43.8714" lon="3.68162">
        <ele>458.20780785522</ele>
        <time>2016-05-07T15:19:24Z</time>
      </trkpt>
      <trkpt lat="43.87128" lon="3.68162">
        <ele>455.65002245122</ele>
        <time>2016-05-07T15:19:41Z</time>
      </trkpt>
      <trkpt lat="43.87115" lon="3.68144">
        <ele>453.23382551025</ele>
        <time>2016-05-07T15:20:04Z</time>
      </trkpt>
      <trkpt lat="43.87115" lon="3.68141">
        <ele>453.23382551025</ele>
        <time>2016-05-07T15:20:06Z</time>
      </trkpt>
      <trkpt lat="43.87113" lon="3.68126">
        <ele>450.94326732256</ele>
        <time>2016-05-07T15:20:21Z</time>
      </trkpt>
      <trkpt lat="43.87111" lon="3.68115">
        <ele>450.94326732256</ele>
        <time>2016-05-07T15:20:26Z</time>
      </trkpt>
      <trkpt lat="43.8711" lon="3.681">
        <ele>448.76313750535</ele>
        <time>2016-05-07T15:20:38Z</time>
      </trkpt>
      <trkpt lat="43.87111" lon="3.68099">
        <ele>448.76313750535</ele>
        <time>2016-05-07T15:20:39Z</time>
      </trkpt>
      <trkpt lat="43.8711" lon="3.68097">
        <ele>448.76313750535</ele>
        <time>2016-05-07T15:20:43Z</time>
      </trkpt>
      <trkpt lat="43.87109" lon="3.6807">
        <ele>446.54927717051</ele>
        <time>2016-05-07T15:21:02Z</time>
      </trkpt>
      <trkpt lat="43.87111" lon="3.68066">
        <ele>446.54927717051</ele>
        <time>2016-05-07T15:21:06Z</time>
      </trkpt>
      <trkpt lat="43.87111" lon="3.68045">
        <ele>444.38434553244</ele>
        <time>2016-05-07T15:21:21Z</time>
      </trkpt>
      <trkpt lat="43.87068" lon="3.67959">
        <ele>439.7651868608</ele>
        <time>2016-05-07T15:23:50Z</time>
      </trkpt>
      <trkpt lat="43.87041" lon="3.67968">
        <ele>435.27918779318</ele>
        <time>2016-05-07T15:24:07Z</time>
      </trkpt>
      <trkpt lat="43.87039" lon="3.67968">
        <ele>435.27918779318</ele>
        <time>2016-05-07T15:24:13Z</time>
      </trkpt>
      <trkpt lat="43.87042" lon="3.67961">
        <ele>435.27918779318</ele>
        <time>2016-05-07T15:24:26Z</time>
      </trkpt>
      <trkpt lat="43.87043" lon="3.67956">
        <ele>430.87340876434</ele>
        <time>2016-05-07T15:24:28Z</time>
      </trkpt>
      <trkpt lat="43.87043" lon="3.67954">
        <ele>430.87340876434</ele>
        <time>2016-05-07T15:24:41Z</time>
      </trkpt>
      <trkpt lat="43.87052" lon="3.67917">
        <ele>426.44093716397</ele>
        <time>2016-05-07T15:25:00Z</time>
      </trkpt>
      <trkpt lat="43.87067" lon="3.67877">
        <ele>421.8972067975</ele>
        <time>2016-05-07T15:25:33Z</time>
      </trkpt>
      <trkpt lat="43.8707" lon="3.67871">
        <ele>421.8972067975</ele>
        <time>2016-05-07T15:25:33Z</time>
      </trkpt>
      <trkpt lat="43.87102" lon="3.67807">
        <ele>416.65979146999</ele>
        <time>2016-05-07T15:26:33Z</time>
      </trkpt>
      <trkpt lat="43.87107" lon="3.67795">
        <ele>411.92033244407</ele>
        <time>2016-05-07T15:26:33Z</time>
      </trkpt>
      <trkpt lat="43.87111" lon="3.67781">
        <ele>407.67188157968</ele>
        <time>2016-05-07T15:26:50Z</time>
      </trkpt>
      <trkpt lat="43.87136" lon="3.67706">
        <ele>402.66726541286</ele>
        <time>2016-05-07T15:27:40Z</time>
      </trkpt>
      <trkpt lat="43.87128" lon="3.67704">
        <ele>402.66726541286</ele>
        <time>2016-05-07T15:27:51Z</time>
      </trkpt>
      <trkpt lat="43.87122" lon="3.67706">
        <ele>397.82824443471</ele>
        <time>2016-05-07T15:28:00Z</time>
      </trkpt>
      <trkpt lat="43.87113" lon="3.67712">
        <ele>393.37430746745</ele>
        <time>2016-05-07T15:28:12Z</time>
      </trkpt>
      <trkpt lat="43.87094" lon="3.6773">
        <ele>388.93128774502</ele>
        <time>2016-05-07T15:28:29Z</time>
      </trkpt>
      <trkpt lat="43.87081" lon="3.67742">
        <ele>384.61362186617</ele>
        <time>2016-05-07T15:28:45Z</time>
      </trkpt>
      <trkpt lat="43.8708" lon="3.67742">
        <ele>384.61362186617</ele>
        <time>2016-05-07T15:28:46Z</time>
      </trkpt>
      <trkpt lat="43.87067" lon="3.67751">
        <ele>380.55580377694</ele>
        <time>2016-05-07T15:29:01Z</time>
      </trkpt>
      <trkpt lat="43.87057" lon="3.67755">
        <ele>376.57908065257</ele>
        <time>2016-05-07T15:29:20Z</time>
      </trkpt>
      <trkpt lat="43.87039" lon="3.67764">
        <ele>373.03640268965</ele>
        <time>2016-05-07T15:29:28Z</time>
      </trkpt>
      <trkpt lat="43.87012" lon="3.67767">
        <ele>369.4321453474</ele>
        <time>2016-05-07T15:29:56Z</time>
      </trkpt>
      <trkpt lat="43.87005" lon="3.6777">
        <ele>369.4321453474</ele>
        <time>2016-05-07T15:30:01Z</time>
      </trkpt>
      <trkpt lat="43.86992" lon="3.67776">
        <ele>366.02783110778</ele>
        <time>2016-05-07T15:30:11Z</time>
      </trkpt>
      <trkpt lat="43.86985" lon="3.67774">
        <ele>366.02783110778</ele>
        <time>2016-05-07T15:30:18Z</time>
      </trkpt>
      <trkpt lat="43.86978" lon="3.67774">
        <ele>362.63289366173</ele>
        <time>2016-05-07T15:30:26Z</time>
      </trkpt>
      <trkpt lat="43.86973" lon="3.67776">
        <ele>362.63289366173</ele>
        <time>2016-05-07T15:30:31Z</time>
      </trkpt>
      <trkpt lat="43.86962" lon="3.67775">
        <ele>359.05635181451</ele>
        <time>2016-05-07T15:30:46Z</time>
      </trkpt>
      <trkpt lat="43.86936" lon="3.67776">
        <ele>355.26590388805</ele>
        <time>2016-05-07T15:31:15Z</time>
      </trkpt>
      <trkpt lat="43.86931" lon="3.67775">
        <ele>355.26590388805</ele>
        <time>2016-05-07T15:31:16Z</time>
      </trkpt>
      <trkpt lat="43.86918" lon="3.67778">
        <ele>351.26107750171</ele>
        <time>2016-05-07T15:31:32Z</time>
      </trkpt>
      <trkpt lat="43.86896" lon="3.67783">
        <ele>346.69620580045</ele>
        <time>2016-05-07T15:31:59Z</time>
      </trkpt>
      <trkpt lat="43.8689" lon="3.67784">
        <ele>346.69620580045</ele>
        <time>2016-05-07T15:32:01Z</time>
      </trkpt>
      <trkpt lat="43.86871" lon="3.67786">
        <ele>342.0884663886</ele>
        <time>2016-05-07T15:32:18Z</time>
      </trkpt>
      <trkpt lat="43.86858" lon="3.67785">
        <ele>337.62897746584</ele>
        <time>2016-05-07T15:32:36Z</time>
      </trkpt>
      <trkpt lat="43.8685" lon="3.67785">
        <ele>337.62897746584</ele>
        <time>2016-05-07T15:32:36Z</time>
      </trkpt>
      <trkpt lat="43.86843" lon="3.67793">
        <ele>333.10533274862</ele>
        <time>2016-05-07T15:32:52Z</time>
      </trkpt>
      <trkpt lat="43.86831" lon="3.67825">
        <ele>328.60915880974</ele>
        <time>2016-05-07T15:33:15Z</time>
      </trkpt>
      <trkpt lat="43.86829" lon="3.67836">
        <ele>328.60915880974</ele>
        <time>2016-05-07T15:33:16Z</time>
      </trkpt>
      <trkpt lat="43.86829" lon="3.67851">
        <ele>324.26853191455</ele>
        <time>2016-05-07T15:33:33Z</time>
      </trkpt>
      <trkpt lat="43.86816" lon="3.67899">
        <ele>319.69731575541</ele>
        <time>2016-05-07T15:34:01Z</time>
      </trkpt>
      <trkpt lat="43.86803" lon="3.67919">
        <ele>315.02838248242</ele>
        <time>2016-05-07T15:34:34Z</time>
      </trkpt>
      <trkpt lat="43.86795" lon="3.67933">
        <ele>310.75982258206</ele>
        <time>2016-05-07T15:34:34Z</time>
      </trkpt>
      <trkpt lat="43.86783" lon="3.67952">
        <ele>306.21354896603</ele>
        <time>2016-05-07T15:35:06Z</time>
      </trkpt>
      <trkpt lat="43.86775" lon="3.67977">
        <ele>302.21759993012</ele>
        <time>2016-05-07T15:35:08Z</time>
      </trkpt>
      <trkpt lat="43.86773" lon="3.67997">
        <ele>298.58652066294</ele>
        <time>2016-05-07T15:35:32Z</time>
      </trkpt>
      <trkpt lat="43.86774" lon="3.68036">
        <ele>295.45010366378</ele>
        <time>2016-05-07T15:35:48Z</time>
      </trkpt>
      <trkpt lat="43.86774" lon="3.68049">
        <ele>292.7543049849</ele>
        <time>2016-05-07T15:35:49Z</time>
      </trkpt>
      <trkpt lat="43.86775" lon="3.68068">
        <ele>290.62077585387</ele>
        <time>2016-05-07T15:36:01Z</time>
      </trkpt>
      <trkpt lat="43.86778" lon="3.68089">
        <ele>289.13187152089</ele>
        <time>2016-05-07T15:36:17Z</time>
      </trkpt>
      <trkpt lat="43.86779" lon="3.68108">
        <ele>288.03068884359</ele>
        <time>2016-05-07T15:36:48Z</time>
      </trkpt>
      <trkpt lat="43.86791" lon="3.68156">
        <ele>287.43846081158</ele>
        <time>2016-05-07T15:37:10Z</time>
      </trkpt>
      <trkpt lat="43.86801" lon="3.68235">
        <ele>286.87532555347</ele>
        <time>2016-05-07T15:38:08Z</time>
      </trkpt>
      <trkpt lat="43.86799" lon="3.68251">
        <ele>286.50197292544</ele>
        <time>2016-05-07T15:38:16Z</time>
      </trkpt>
      <trkpt lat="43.86799" lon="3.6825">
        <ele>286.50197292544</ele>
        <time>2016-05-07T15:38:21Z</time>
      </trkpt>
      <trkpt lat="43.86799" lon="3.68258">
        <ele>286.50197292544</ele>
        <time>2016-05-07T15:38:51Z</time>
      </trkpt>
      <trkpt lat="43.868" lon="3.68264">
        <ele>286.51012781811</ele>
        <time>2016-05-07T15:38:56Z</time>
      </trkpt>
      <trkpt lat="43.86799" lon="3.68268">
        <ele>286.51012781811</ele>
        <time>2016-05-07T15:39:01Z</time>
      </trkpt>
      <trkpt lat="43.86798" lon="3.68273">
        <ele>286.51012781811</ele>
        <time>2016-05-07T15:39:06Z</time>
      </trkpt>
      <trkpt lat="43.86798" lon="3.68281">
        <ele>287.0476995665</ele>
        <time>2016-05-07T15:39:11Z</time>
      </trkpt>
      <trkpt lat="43.86801" lon="3.6829">
        <ele>287.0476995665</ele>
        <time>2016-05-07T15:39:17Z</time>
      </trkpt>
      <trkpt lat="43.86802" lon="3.68293">
        <ele>287.78927489298</ele>
        <time>2016-05-07T15:39:21Z</time>
      </trkpt>
      <trkpt lat="43.86803" lon="3.68299">
        <ele>287.78927489298</ele>
        <time>2016-05-07T15:39:26Z</time>
      </trkpt>
      <trkpt lat="43.86804" lon="3.68301">
        <ele>287.78927489298</ele>
        <time>2016-05-07T15:39:31Z</time>
      </trkpt>
      <trkpt lat="43.86807" lon="3.68316">
        <ele>288.620323994</ele>
        <time>2016-05-07T15:39:42Z</time>
      </trkpt>
      <trkpt lat="43.86806" lon="3.68321">
        <ele>288.620323994</ele>
        <time>2016-05-07T15:39:46Z</time>
      </trkpt>
      <trkpt lat="43.86806" lon="3.68328">
        <ele>289.54999773617</ele>
        <time>2016-05-07T15:39:51Z</time>
      </trkpt>
      <trkpt lat="43.86808" lon="3.68335">
        <ele>289.54999773617</ele>
        <time>2016-05-07T15:39:56Z</time>
      </trkpt>
      <trkpt lat="43.86808" lon="3.68343">
        <ele>290.50028274852</ele>
        <time>2016-05-07T15:40:01Z</time>
      </trkpt>
      <trkpt lat="43.8681" lon="3.68351">
        <ele>290.50028274852</ele>
        <time>2016-05-07T15:40:06Z</time>
      </trkpt>
      <trkpt lat="43.8681" lon="3.68358">
        <ele>291.28382094403</ele>
        <time>2016-05-07T15:40:11Z</time>
      </trkpt>
      <trkpt lat="43.86808" lon="3.68399">
        <ele>291.67012896039</ele>
        <time>2016-05-07T15:40:40Z</time>
      </trkpt>
      <trkpt lat="43.86808" lon="3.6841">
        <ele>291.67012896039</ele>
        <time>2016-05-07T15:40:43Z</time>
      </trkpt>
      <trkpt lat="43.86806" lon="3.68434">
        <ele>291.76411532878</ele>
        <time>2016-05-07T15:41:08Z</time>
      </trkpt>
      <trkpt lat="43.86801" lon="3.68445">
        <ele>291.89469198705</ele>
        <time>2016-05-07T15:41:08Z</time>
      </trkpt>
      <trkpt lat="43.868" lon="3.68455">
        <ele>291.89469198705</ele>
        <time>2016-05-07T15:41:22Z</time>
      </trkpt>
      <trkpt lat="43.8681" lon="3.6851">
        <ele>291.28599043641</ele>
        <time>2016-05-07T15:42:00Z</time>
      </trkpt>
      <trkpt lat="43.86857" lon="3.68607">
        <ele>289.69709589338</ele>
        <time>2016-05-07T15:43:08Z</time>
      </trkpt>
      <trkpt lat="43.86863" lon="3.68614">
        <ele>289.69709589338</ele>
        <time>2016-05-07T15:43:08Z</time>
      </trkpt>
      <trkpt lat="43.86818" lon="3.68609">
        <ele>287.34018738795</ele>
        <time>2016-05-07T15:44:03Z</time>
      </trkpt>
      <trkpt lat="43.86814" lon="3.68606">
        <ele>287.34018738795</ele>
        <time>2016-05-07T15:44:06Z</time>
      </trkpt>
      <trkpt lat="43.86803" lon="3.68598">
        <ele>285.06281538139</ele>
        <time>2016-05-07T15:44:17Z</time>
      </trkpt>
      <trkpt lat="43.86752" lon="3.68567">
        <ele>282.46862326375</ele>
        <time>2016-05-07T15:45:08Z</time>
      </trkpt>
      <trkpt lat="43.8675" lon="3.68578">
        <ele>282.46862326375</ele>
        <time>2016-05-07T15:45:09Z</time>
      </trkpt>
      <trkpt lat="43.86753" lon="3.68589">
        <ele>279.86885207612</ele>
        <time>2016-05-07T15:45:16Z</time>
      </trkpt>
      <trkpt lat="43.86757" lon="3.68597">
        <ele>279.86885207612</ele>
        <time>2016-05-07T15:45:21Z</time>
      </trkpt>
      <trkpt lat="43.86777" lon="3.68653">
        <ele>276.91805655301</ele>
        <time>2016-05-07T15:46:05Z</time>
      </trkpt>
      <trkpt lat="43.8679" lon="3.6868">
        <ele>273.78736098535</ele>
        <time>2016-05-07T15:46:25Z</time>
      </trkpt>
      <trkpt lat="43.86789" lon="3.68692">
        <ele>273.78736098535</ele>
        <time>2016-05-07T15:46:26Z</time>
      </trkpt>
      <trkpt lat="43.86799" lon="3.68743">
        <ele>270.18928820359</ele>
        <time>2016-05-07T15:47:08Z</time>
      </trkpt>
      <trkpt lat="43.86803" lon="3.68754">
        <ele>266.83893342523</ele>
        <time>2016-05-07T15:47:08Z</time>
      </trkpt>
      <trkpt lat="43.86813" lon="3.68796">
        <ele>263.31749771898</ele>
        <time>2016-05-07T15:47:46Z</time>
      </trkpt>
      <trkpt lat="43.86814" lon="3.68807">
        <ele>263.31749771898</ele>
        <time>2016-05-07T15:47:46Z</time>
      </trkpt>
      <trkpt lat="43.8682" lon="3.68824">
        <ele>259.61225841029</ele>
        <time>2016-05-07T15:48:09Z</time>
      </trkpt>
      <trkpt lat="43.8684" lon="3.68884">
        <ele>254.71769461015</ele>
        <time>2016-05-07T15:49:01Z</time>
      </trkpt>
      <trkpt lat="43.86844" lon="3.68883">
        <ele>254.71769461015</ele>
        <time>2016-05-07T15:49:06Z</time>
      </trkpt>
      <trkpt lat="43.86845" lon="3.68883">
        <ele>254.71769461015</ele>
        <time>2016-05-07T15:49:11Z</time>
      </trkpt>
      <trkpt lat="43.86855" lon="3.68886">
        <ele>250.08341565243</ele>
        <time>2016-05-07T15:49:21Z</time>
      </trkpt>
      <trkpt lat="43.86861" lon="3.68889">
        <ele>250.08341565243</ele>
        <time>2016-05-07T15:49:26Z</time>
      </trkpt>
      <trkpt lat="43.86867" lon="3.6889">
        <ele>245.76929385013</ele>
        <time>2016-05-07T15:49:31Z</time>
      </trkpt>
      <trkpt lat="43.86875" lon="3.6889">
        <ele>245.76929385013</ele>
        <time>2016-05-07T15:49:36Z</time>
      </trkpt>
      <trkpt lat="43.86881" lon="3.68892">
        <ele>241.9884737925</ele>
        <time>2016-05-07T15:49:41Z</time>
      </trkpt>
      <trkpt lat="43.86885" lon="3.68896">
        <ele>241.9884737925</ele>
        <time>2016-05-07T15:49:46Z</time>
      </trkpt>
      <trkpt lat="43.8689" lon="3.68902">
        <ele>238.5766938318</ele>
        <time>2016-05-07T15:49:51Z</time>
      </trkpt>
      <trkpt lat="43.86894" lon="3.6891">
        <ele>238.5766938318</ele>
        <time>2016-05-07T15:49:56Z</time>
      </trkpt>
      <trkpt lat="43.86897" lon="3.68915">
        <ele>235.58248822819</ele>
        <time>2016-05-07T15:50:01Z</time>
      </trkpt>
      <trkpt lat="43.86901" lon="3.68921">
        <ele>235.58248822819</ele>
        <time>2016-05-07T15:50:06Z</time>
      </trkpt>
      <trkpt lat="43.86905" lon="3.68931">
        <ele>232.86230724333</ele>
        <time>2016-05-07T15:50:11Z</time>
      </trkpt>
      <trkpt lat="43.86908" lon="3.68937">
        <ele>232.86230724333</ele>
        <time>2016-05-07T15:50:16Z</time>
      </trkpt>
      <trkpt lat="43.86912" lon="3.68941">
        <ele>230.48412281042</ele>
        <time>2016-05-07T15:50:21Z</time>
      </trkpt>
      <trkpt lat="43.86916" lon="3.68946">
        <ele>230.48412281042</ele>
        <time>2016-05-07T15:50:26Z</time>
      </trkpt>
      <trkpt lat="43.86917" lon="3.68946">
        <ele>230.48412281042</ele>
        <time>2016-05-07T15:50:31Z</time>
      </trkpt>
      <trkpt lat="43.86916" lon="3.68952">
        <ele>228.29377294619</ele>
        <time>2016-05-07T15:50:36Z</time>
      </trkpt>
      <trkpt lat="43.86912" lon="3.68957">
        <ele>228.29377294619</ele>
        <time>2016-05-07T15:50:41Z</time>
      </trkpt>
      <trkpt lat="43.86908" lon="3.68963">
        <ele>226.42168873937</ele>
        <time>2016-05-07T15:50:46Z</time>
      </trkpt>
      <trkpt lat="43.86903" lon="3.68967">
        <ele>226.42168873937</ele>
        <time>2016-05-07T15:50:51Z</time>
      </trkpt>
      <trkpt lat="43.86899" lon="3.68971">
        <ele>224.75723442971</ele>
        <time>2016-05-07T15:50:56Z</time>
      </trkpt>
      <trkpt lat="43.86894" lon="3.68976">
        <ele>224.75723442971</ele>
        <time>2016-05-07T15:51:01Z</time>
      </trkpt>
      <trkpt lat="43.86896" lon="3.68983">
        <ele>223.34141870055</ele>
        <time>2016-05-07T15:51:06Z</time>
      </trkpt>
      <trkpt lat="43.86897" lon="3.68989">
        <ele>223.34141870055</ele>
        <time>2016-05-07T15:51:11Z</time>
      </trkpt>
      <trkpt lat="43.86897" lon="3.68996">
        <ele>222.1827116737</ele>
        <time>2016-05-07T15:51:16Z</time>
      </trkpt>
      <trkpt lat="43.86899" lon="3.69">
        <ele>222.1827116737</ele>
        <time>2016-05-07T15:51:21Z</time>
      </trkpt>
      <trkpt lat="43.86898" lon="3.69004">
        <ele>222.1827116737</ele>
        <time>2016-05-07T15:51:26Z</time>
      </trkpt>
      <trkpt lat="43.86898" lon="3.69007">
        <ele>222.1827116737</ele>
        <time>2016-05-07T15:51:31Z</time>
      </trkpt>
      <trkpt lat="43.86899" lon="3.69009">
        <ele>221.27382944011</ele>
        <time>2016-05-07T15:51:36Z</time>
      </trkpt>
      <trkpt lat="43.869" lon="3.6901">
        <ele>221.27382944011</ele>
        <time>2016-05-07T15:51:41Z</time>
      </trkpt>
      <trkpt lat="43.86897" lon="3.69018">
        <ele>221.27382944011</ele>
        <time>2016-05-07T15:51:57Z</time>
      </trkpt>
      <trkpt lat="43.86904" lon="3.69032">
        <ele>220.66497590472</ele>
        <time>2016-05-07T15:52:09Z</time>
      </trkpt>
      <trkpt lat="43.86905" lon="3.69033">
        <ele>220.66497590472</ele>
        <time>2016-05-07T15:52:11Z</time>
      </trkpt>
      <trkpt lat="43.86921" lon="3.6905">
        <ele>220.32978898848</ele>
        <time>2016-05-07T15:52:33Z</time>
      </trkpt>
      <trkpt lat="43.86919" lon="3.69098">
        <ele>220.35839533506</ele>
        <time>2016-05-07T15:53:28Z</time>
      </trkpt>
      <trkpt lat="43.86931" lon="3.69134">
        <ele>219.73807810291</ele>
        <time>2016-05-07T15:54:11Z</time>
      </trkpt>
      <trkpt lat="43.86933" lon="3.69135">
        <ele>219.73807810291</ele>
        <time>2016-05-07T15:54:12Z</time>
      </trkpt>
      <trkpt lat="43.86949" lon="3.69133">
        <ele>218.67086590476</ele>
        <time>2016-05-07T15:54:44Z</time>
      </trkpt>
      <trkpt lat="43.8699" lon="3.69129">
        <ele>216.68234923129</ele>
        <time>2016-05-07T15:55:09Z</time>
      </trkpt>
      <trkpt lat="43.87005" lon="3.69124">
        <ele>214.44527252434</ele>
        <time>2016-05-07T15:55:13Z</time>
      </trkpt>
      <trkpt lat="43.87011" lon="3.69119">
        <ele>214.44527252434</ele>
        <time>2016-05-07T15:55:28Z</time>
      </trkpt>
      <trkpt lat="43.87015" lon="3.69114">
        <ele>212.15138678313</ele>
        <time>2016-05-07T15:55:28Z</time>
      </trkpt>
      <trkpt lat="43.87022" lon="3.69154">
        <ele>208.96979440991</ele>
        <time>2016-05-07T15:56:08Z</time>
      </trkpt>
      <trkpt lat="43.8703" lon="3.69172">
        <ele>205.79045104407</ele>
        <time>2016-05-07T15:56:27Z</time>
      </trkpt>
      <trkpt lat="43.8707" lon="3.69336">
        <ele>201.73745383979</ele>
        <time>2016-05-07T15:58:30Z</time>
      </trkpt>
      <trkpt lat="43.87073" lon="3.69356">
        <ele>198.16338336704</ele>
        <time>2016-05-07T15:58:34Z</time>
      </trkpt>
      <trkpt lat="43.87092" lon="3.69435">
        <ele>194.95106834203</ele>
        <time>2016-05-07T15:59:26Z</time>
      </trkpt>
      <trkpt lat="43.87099" lon="3.69463">
        <ele>191.96210224425</ele>
        <time>2016-05-07T15:59:44Z</time>
      </trkpt>
      <trkpt lat="43.87105" lon="3.69507">
        <ele>189.26935868104</ele>
        <time>2016-05-07T16:00:01Z</time>
      </trkpt>
      <trkpt lat="43.87105" lon="3.69508">
        <ele>189.26935868104</ele>
        <time>2016-05-07T16:00:01Z</time>
      </trkpt>
      <trkpt lat="43.87108" lon="3.69516">
        <ele>189.26935868104</ele>
        <time>2016-05-07T16:00:08Z</time>
      </trkpt>
      <trkpt lat="43.8711" lon="3.69541">
        <ele>186.78098127331</ele>
        <time>2016-05-07T16:00:22Z</time>
      </trkpt>
      <trkpt lat="43.8712" lon="3.69565">
        <ele>184.45449341455</ele>
        <time>2016-05-07T16:00:37Z</time>
      </trkpt>
      <trkpt lat="43.87129" lon="3.69597">
        <ele>182.466221444</ele>
        <time>2016-05-07T16:01:07Z</time>
      </trkpt>
      <trkpt lat="43.87133" lon="3.69611">
        <ele>180.69033801107</ele>
        <time>2016-05-07T16:01:08Z</time>
      </trkpt>
      <trkpt lat="43.87206" lon="3.69766">
        <ele>180.29222708486</ele>
        <time>2016-05-07T16:03:03Z</time>
      </trkpt>
      <trkpt lat="43.8724" lon="3.6985">
        <ele>180.04200250437</ele>
        <time>2016-05-07T16:04:05Z</time>
      </trkpt>
      <trkpt lat="43.8724" lon="3.69852">
        <ele>180.04200250437</ele>
        <time>2016-05-07T16:04:06Z</time>
      </trkpt>
      <trkpt lat="43.87242" lon="3.69866">
        <ele>179.88053674233</ele>
        <time>2016-05-07T16:04:24Z</time>
      </trkpt>
      <trkpt lat="43.87243" lon="3.6988">
        <ele>179.65192551285</ele>
        <time>2016-05-07T16:04:24Z</time>
      </trkpt>
      <trkpt lat="43.87259" lon="3.69945">
        <ele>178.79400338216</ele>
        <time>2016-05-07T16:05:07Z</time>
      </trkpt>
      <trkpt lat="43.87275" lon="3.6998">
        <ele>177.62354306759</ele>
        <time>2016-05-07T16:05:41Z</time>
      </trkpt>
      <trkpt lat="43.87281" lon="3.69987">
        <ele>177.62354306759</ele>
        <time>2016-05-07T16:05:41Z</time>
      </trkpt>
      <trkpt lat="43.87316" lon="3.70023">
        <ele>176.3052641567</ele>
        <time>2016-05-07T16:06:15Z</time>
      </trkpt>
      <trkpt lat="43.87317" lon="3.70024">
        <ele>176.3052641567</ele>
        <time>2016-05-07T16:06:16Z</time>
      </trkpt>
      <trkpt lat="43.87318" lon="3.7003">
        <ele>176.3052641567</ele>
        <time>2016-05-07T16:06:21Z</time>
      </trkpt>
      <trkpt lat="43.87321" lon="3.70037">
        <ele>175.2228245826</ele>
        <time>2016-05-07T16:06:26Z</time>
      </trkpt>
      <trkpt lat="43.87324" lon="3.70043">
        <ele>175.2228245826</ele>
        <time>2016-05-07T16:06:31Z</time>
      </trkpt>
      <trkpt lat="43.8733" lon="3.70048">
        <ele>174.19787604254</ele>
        <time>2016-05-07T16:06:36Z</time>
      </trkpt>
      <trkpt lat="43.87335" lon="3.70053">
        <ele>174.19787604254</ele>
        <time>2016-05-07T16:06:41Z</time>
      </trkpt>
      <trkpt lat="43.87341" lon="3.70056">
        <ele>172.99300773224</ele>
        <time>2016-05-07T16:06:46Z</time>
      </trkpt>
      <trkpt lat="43.87348" lon="3.70059">
        <ele>172.99300773224</ele>
        <time>2016-05-07T16:06:51Z</time>
      </trkpt>
      <trkpt lat="43.87373" lon="3.70077">
        <ele>171.44645329438</ele>
        <time>2016-05-07T16:07:21Z</time>
      </trkpt>
      <trkpt lat="43.87376" lon="3.70078">
        <ele>171.44645329438</ele>
        <time>2016-05-07T16:07:28Z</time>
      </trkpt>
      <trkpt lat="43.87388" lon="3.70092">
        <ele>169.98578963976</ele>
        <time>2016-05-07T16:07:44Z</time>
      </trkpt>
      <trkpt lat="43.87408" lon="3.70126">
        <ele>168.37291104711</ele>
        <time>2016-05-07T16:08:03Z</time>
      </trkpt>
      <trkpt lat="43.87408" lon="3.7013">
        <ele>168.37291104711</ele>
        <time>2016-05-07T16:08:06Z</time>
      </trkpt>
      <trkpt lat="43.87423" lon="3.70138">
        <ele>166.9785421181</ele>
        <time>2016-05-07T16:08:16Z</time>
      </trkpt>
      <trkpt lat="43.8746" lon="3.70171">
        <ele>166.62118532562</ele>
        <time>2016-05-07T16:09:06Z</time>
      </trkpt>
      <trkpt lat="43.87466" lon="3.70169">
        <ele>166.62118532562</ele>
        <time>2016-05-07T16:09:08Z</time>
      </trkpt>
      <trkpt lat="43.87491" lon="3.70157">
        <ele>166.51437768969</ele>
        <time>2016-05-07T16:09:36Z</time>
      </trkpt>
      <trkpt lat="43.87518" lon="3.70165">
        <ele>166.46200271179</ele>
        <time>2016-05-07T16:10:01Z</time>
      </trkpt>
      <trkpt lat="43.87603" lon="3.70147">
        <ele>164.78351118635</ele>
        <time>2016-05-07T16:12:06Z</time>
      </trkpt>
      <trkpt lat="43.87601" lon="3.70142">
        <ele>164.78351118635</ele>
        <time>2016-05-07T16:12:26Z</time>
      </trkpt>
      <trkpt lat="43.87609" lon="3.70162">
        <ele>162.46279661433</ele>
        <time>2016-05-07T16:12:53Z</time>
      </trkpt>
      <trkpt lat="43.87613" lon="3.70176">
        <ele>160.22600436916</ele>
        <time>2016-05-07T16:13:00Z</time>
      </trkpt>
      <trkpt lat="43.87648" lon="3.70188">
        <ele>157.76581109248</ele>
        <time>2016-05-07T16:13:24Z</time>
      </trkpt>
      <trkpt lat="43.8766" lon="3.70188">
        <ele>154.61080553525</ele>
        <time>2016-05-07T16:13:58Z</time>
      </trkpt>
      <trkpt lat="43.8777" lon="3.70158">
        <ele>149.80739409961</ele>
        <time>2016-05-07T16:15:01Z</time>
      </trkpt>
      <trkpt lat="43.87771" lon="3.70158">
        <ele>149.80739409961</ele>
        <time>2016-05-07T16:15:08Z</time>
      </trkpt>
      <trkpt lat="43.87785" lon="3.70165">
        <ele>145.1283246938</ele>
        <time>2016-05-07T16:15:18Z</time>
      </trkpt>
      <trkpt lat="43.87793" lon="3.70161">
        <ele>145.1283246938</ele>
        <time>2016-05-07T16:15:22Z</time>
      </trkpt>
    </trkseg>
  </trk>
</gpx>